<?xml version="1.0" encoding="UTF-8" standalone="no" ?>
<gpx xmlns="http://www.topografix.com/GPX/1/1" xmlns:xsi="http://www.w3.org/2001/XMLSchema-instance" xsi:schemaLocation="http://www.topografix.com/GPX/1/1 http://www.topografix.com/GPX/1/1/gpx.xsd" version="1.1" creator="VisuGPX - https://www.visugpx.com">
  <metadata>
    <name>Marche nordique de samedi 25/02/2017 </name>
    <desc><![CDATA[Marche nordique de samedi 25/02/2017

Marche nordique de samedi 25/02/2017 
départ 9h15 salle des sports en voiture Les Hautes Bruyères aux Essarts/Coignières - direction la Bazoche sur Guyonne Prendre la N10 sortir à gauche au niveau de Point P, puis 1ère à droite. température au départ   3* ciel clair et pas de pluie. Coordonnée GPS parking LAT: 48.739920 LON: 1.890650]]></desc>
  </metadata>
  <trk>
    <name><![CDATA[Marche nordique 
de samedi 25/02/2017]]></name>
    <desc><![CDATA[Marche nordique 
de samedi 25/02/2017
départ 9h15 salle des sports
en voiture Les Hautes Bruyères aux Essarts/Coignières
- direction la Bazoche sur Guyonne
Prendre la N10 sortir à gauche au niveau de                                                                       Point P, puis 1ère à droite.                                         température au départ + 3*                              ciel clair et pas de pluie.                    Coordonnée GPS parking                                LAT: 48.739920                                                 LON: 1.890650]]></desc>
    <trkseg>
      <trkpt lat="48.74004" lon="1.89068">
        <ele>160.41064453125</ele>
        <time>2017-02-25T08:33:06Z</time>
      </trkpt>
      <trkpt lat="48.73999" lon="1.89088">
        <ele>160.10607910156</ele>
        <time>2017-02-25T08:34:14Z</time>
      </trkpt>
      <trkpt lat="48.73993" lon="1.89108">
        <ele>161.30834960938</ele>
        <time>2017-02-25T08:34:22Z</time>
      </trkpt>
      <trkpt lat="48.73989" lon="1.89129">
        <ele>159.06634521484</ele>
        <time>2017-02-25T08:34:30Z</time>
      </trkpt>
      <trkpt lat="48.7398" lon="1.89147">
        <ele>156.84051513672</ele>
        <time>2017-02-25T08:34:39Z</time>
      </trkpt>
      <trkpt lat="48.73972" lon="1.89165">
        <ele>155.72406005859</ele>
        <time>2017-02-25T08:34:48Z</time>
      </trkpt>
      <trkpt lat="48.73962" lon="1.89181">
        <ele>155.271484375</ele>
        <time>2017-02-25T08:34:54Z</time>
      </trkpt>
      <trkpt lat="48.73956" lon="1.892">
        <ele>157.70721435547</ele>
        <time>2017-02-25T08:35:02Z</time>
      </trkpt>
      <trkpt lat="48.7396" lon="1.89222">
        <ele>159.67468261719</ele>
        <time>2017-02-25T08:35:09Z</time>
      </trkpt>
      <trkpt lat="48.73972" lon="1.89233">
        <ele>164.23022460938</ele>
        <time>2017-02-25T08:35:20Z</time>
      </trkpt>
      <trkpt lat="48.73986" lon="1.89237">
        <ele>157.94787597656</ele>
        <time>2017-02-25T08:35:29Z</time>
      </trkpt>
      <trkpt lat="48.73999" lon="1.89249">
        <ele>158.27490234375</ele>
        <time>2017-02-25T08:35:36Z</time>
      </trkpt>
      <trkpt lat="48.74012" lon="1.89259">
        <ele>158.09259033203</ele>
        <time>2017-02-25T08:35:44Z</time>
      </trkpt>
      <trkpt lat="48.74025" lon="1.89268">
        <ele>158.70678710938</ele>
        <time>2017-02-25T08:35:51Z</time>
      </trkpt>
      <trkpt lat="48.74037" lon="1.89278">
        <ele>159.2451171875</ele>
        <time>2017-02-25T08:35:58Z</time>
      </trkpt>
      <trkpt lat="48.74048" lon="1.89292">
        <ele>158.18627929688</ele>
        <time>2017-02-25T08:36:07Z</time>
      </trkpt>
      <trkpt lat="48.74061" lon="1.89299">
        <ele>156.06018066406</ele>
        <time>2017-02-25T08:36:14Z</time>
      </trkpt>
      <trkpt lat="48.74068" lon="1.89318">
        <ele>159.66845703125</ele>
        <time>2017-02-25T08:36:22Z</time>
      </trkpt>
      <trkpt lat="48.74082" lon="1.89319">
        <ele>159.68096923828</ele>
        <time>2017-02-25T08:36:28Z</time>
      </trkpt>
      <trkpt lat="48.74097" lon="1.89325">
        <ele>160.01605224609</ele>
        <time>2017-02-25T08:36:38Z</time>
      </trkpt>
      <trkpt lat="48.74111" lon="1.89323">
        <ele>156.68872070312</ele>
        <time>2017-02-25T08:36:45Z</time>
      </trkpt>
      <trkpt lat="48.74127" lon="1.89324">
        <ele>154.94268798828</ele>
        <time>2017-02-25T08:36:53Z</time>
      </trkpt>
      <trkpt lat="48.7414" lon="1.89324">
        <ele>152.369140625</ele>
        <time>2017-02-25T08:37:06Z</time>
      </trkpt>
      <trkpt lat="48.74154" lon="1.8932">
        <ele>147.64105224609</ele>
        <time>2017-02-25T08:37:20Z</time>
      </trkpt>
      <trkpt lat="48.74168" lon="1.89309">
        <ele>143.12518310547</ele>
        <time>2017-02-25T08:37:29Z</time>
      </trkpt>
      <trkpt lat="48.74182" lon="1.89308">
        <ele>139.30065917969</ele>
        <time>2017-02-25T08:37:37Z</time>
      </trkpt>
      <trkpt lat="48.74196" lon="1.89304">
        <ele>138.88208007812</ele>
        <time>2017-02-25T08:37:50Z</time>
      </trkpt>
      <trkpt lat="48.74209" lon="1.89301">
        <ele>135.31604003906</ele>
        <time>2017-02-25T08:38:05Z</time>
      </trkpt>
      <trkpt lat="48.74225" lon="1.89299">
        <ele>138.13562011719</ele>
        <time>2017-02-25T08:38:14Z</time>
      </trkpt>
      <trkpt lat="48.74238" lon="1.89308">
        <ele>144.07556152344</ele>
        <time>2017-02-25T08:38:22Z</time>
      </trkpt>
      <trkpt lat="48.74251" lon="1.89304">
        <ele>145.69958496094</ele>
        <time>2017-02-25T08:38:29Z</time>
      </trkpt>
      <trkpt lat="48.74267" lon="1.89305">
        <ele>144.15954589844</ele>
        <time>2017-02-25T08:39:01Z</time>
      </trkpt>
      <trkpt lat="48.74273" lon="1.89325">
        <ele>136.70349121094</ele>
        <time>2017-02-25T08:39:09Z</time>
      </trkpt>
      <trkpt lat="48.74289" lon="1.89352">
        <ele>142.40655517578</ele>
        <time>2017-02-25T08:39:14Z</time>
      </trkpt>
      <trkpt lat="48.74333" lon="1.89362">
        <ele>140.56127929688</ele>
        <time>2017-02-25T08:39:19Z</time>
      </trkpt>
      <trkpt lat="48.74344" lon="1.89376">
        <ele>142.03967285156</ele>
        <time>2017-02-25T08:39:29Z</time>
      </trkpt>
      <trkpt lat="48.74355" lon="1.8939">
        <ele>147.03942871094</ele>
        <time>2017-02-25T08:39:38Z</time>
      </trkpt>
      <trkpt lat="48.74373" lon="1.89392">
        <ele>141.61157226562</ele>
        <time>2017-02-25T08:40:37Z</time>
      </trkpt>
      <trkpt lat="48.74388" lon="1.89392">
        <ele>138.95227050781</ele>
        <time>2017-02-25T08:40:54Z</time>
      </trkpt>
      <trkpt lat="48.74402" lon="1.89387">
        <ele>135.91943359375</ele>
        <time>2017-02-25T08:41:04Z</time>
      </trkpt>
      <trkpt lat="48.74417" lon="1.89389">
        <ele>133.22888183594</ele>
        <time>2017-02-25T08:41:10Z</time>
      </trkpt>
      <trkpt lat="48.74436" lon="1.89381">
        <ele>131.58990478516</ele>
        <time>2017-02-25T08:41:19Z</time>
      </trkpt>
      <trkpt lat="48.74451" lon="1.89373">
        <ele>134.67956542969</ele>
        <time>2017-02-25T08:41:25Z</time>
      </trkpt>
      <trkpt lat="48.74466" lon="1.8936">
        <ele>134.33215332031</ele>
        <time>2017-02-25T08:41:33Z</time>
      </trkpt>
      <trkpt lat="48.74477" lon="1.89347">
        <ele>132.84045410156</ele>
        <time>2017-02-25T08:41:44Z</time>
      </trkpt>
      <trkpt lat="48.74486" lon="1.89332">
        <ele>132.62530517578</ele>
        <time>2017-02-25T08:41:55Z</time>
      </trkpt>
      <trkpt lat="48.74499" lon="1.89322">
        <ele>129.94342041016</ele>
        <time>2017-02-25T08:42:07Z</time>
      </trkpt>
      <trkpt lat="48.74505" lon="1.89302">
        <ele>131.28955078125</ele>
        <time>2017-02-25T08:42:21Z</time>
      </trkpt>
      <trkpt lat="48.74518" lon="1.89289">
        <ele>128.04888916016</ele>
        <time>2017-02-25T08:42:29Z</time>
      </trkpt>
      <trkpt lat="48.74529" lon="1.89276">
        <ele>131.73547363281</ele>
        <time>2017-02-25T08:42:38Z</time>
      </trkpt>
      <trkpt lat="48.74542" lon="1.89265">
        <ele>130.88439941406</ele>
        <time>2017-02-25T08:42:46Z</time>
      </trkpt>
      <trkpt lat="48.74559" lon="1.89257">
        <ele>135.73590087891</ele>
        <time>2017-02-25T08:42:53Z</time>
      </trkpt>
      <trkpt lat="48.74575" lon="1.8925">
        <ele>142.89752197266</ele>
        <time>2017-02-25T08:43:04Z</time>
      </trkpt>
      <trkpt lat="48.74589" lon="1.89246">
        <ele>139.50280761719</ele>
        <time>2017-02-25T08:43:12Z</time>
      </trkpt>
      <trkpt lat="48.74604" lon="1.89245">
        <ele>139.67144775391</ele>
        <time>2017-02-25T08:43:23Z</time>
      </trkpt>
      <trkpt lat="48.74618" lon="1.8924">
        <ele>138.33728027344</ele>
        <time>2017-02-25T08:43:35Z</time>
      </trkpt>
      <trkpt lat="48.74634" lon="1.8924">
        <ele>137.54956054688</ele>
        <time>2017-02-25T08:43:47Z</time>
      </trkpt>
      <trkpt lat="48.74648" lon="1.89242">
        <ele>132.61120605469</ele>
        <time>2017-02-25T08:43:57Z</time>
      </trkpt>
      <trkpt lat="48.74662" lon="1.89241">
        <ele>131.68585205078</ele>
        <time>2017-02-25T08:44:07Z</time>
      </trkpt>
      <trkpt lat="48.74676" lon="1.89236">
        <ele>135.20446777344</ele>
        <time>2017-02-25T08:44:16Z</time>
      </trkpt>
      <trkpt lat="48.74691" lon="1.89238">
        <ele>133.88232421875</ele>
        <time>2017-02-25T08:44:26Z</time>
      </trkpt>
      <trkpt lat="48.74704" lon="1.89247">
        <ele>129.83807373047</ele>
        <time>2017-02-25T08:44:35Z</time>
      </trkpt>
      <trkpt lat="48.74716" lon="1.89259">
        <ele>132.72174072266</ele>
        <time>2017-02-25T08:44:42Z</time>
      </trkpt>
      <trkpt lat="48.74734" lon="1.89265">
        <ele>137.00695800781</ele>
        <time>2017-02-25T08:44:46Z</time>
      </trkpt>
      <trkpt lat="48.74749" lon="1.89278">
        <ele>134.92797851562</ele>
        <time>2017-02-25T08:44:52Z</time>
      </trkpt>
      <trkpt lat="48.7476" lon="1.89291">
        <ele>136.32434082031</ele>
        <time>2017-02-25T08:45:06Z</time>
      </trkpt>
      <trkpt lat="48.74773" lon="1.89298">
        <ele>136.31262207031</ele>
        <time>2017-02-25T08:45:14Z</time>
      </trkpt>
      <trkpt lat="48.74786" lon="1.89312">
        <ele>134.38018798828</ele>
        <time>2017-02-25T08:45:23Z</time>
      </trkpt>
      <trkpt lat="48.74801" lon="1.89312">
        <ele>132.99841308594</ele>
        <time>2017-02-25T08:45:28Z</time>
      </trkpt>
      <trkpt lat="48.74815" lon="1.89319">
        <ele>130.63909912109</ele>
        <time>2017-02-25T08:45:38Z</time>
      </trkpt>
      <trkpt lat="48.74827" lon="1.89328">
        <ele>130.29028320312</ele>
        <time>2017-02-25T08:45:47Z</time>
      </trkpt>
      <trkpt lat="48.74839" lon="1.89342">
        <ele>129.38842773438</ele>
        <time>2017-02-25T08:45:57Z</time>
      </trkpt>
      <trkpt lat="48.74853" lon="1.89348">
        <ele>131.78515625</ele>
        <time>2017-02-25T08:46:02Z</time>
      </trkpt>
      <trkpt lat="48.74865" lon="1.89355">
        <ele>126.79760742188</ele>
        <time>2017-02-25T08:46:13Z</time>
      </trkpt>
      <trkpt lat="48.74878" lon="1.89364">
        <ele>127.18200683594</ele>
        <time>2017-02-25T08:46:22Z</time>
      </trkpt>
      <trkpt lat="48.7489" lon="1.89374">
        <ele>125.78796386719</ele>
        <time>2017-02-25T08:46:32Z</time>
      </trkpt>
      <trkpt lat="48.74905" lon="1.89379">
        <ele>125.53448486328</ele>
        <time>2017-02-25T08:46:41Z</time>
      </trkpt>
      <trkpt lat="48.7492" lon="1.89384">
        <ele>124.36126708984</ele>
        <time>2017-02-25T08:46:49Z</time>
      </trkpt>
      <trkpt lat="48.74934" lon="1.89385">
        <ele>126.03820800781</ele>
        <time>2017-02-25T08:46:56Z</time>
      </trkpt>
      <trkpt lat="48.74947" lon="1.89382">
        <ele>125.74346923828</ele>
        <time>2017-02-25T08:47:04Z</time>
      </trkpt>
      <trkpt lat="48.74962" lon="1.89378">
        <ele>119.26568603516</ele>
        <time>2017-02-25T08:47:13Z</time>
      </trkpt>
      <trkpt lat="48.74977" lon="1.8938">
        <ele>120.02099609375</ele>
        <time>2017-02-25T08:47:23Z</time>
      </trkpt>
      <trkpt lat="48.74991" lon="1.89379">
        <ele>118.58831787109</ele>
        <time>2017-02-25T08:47:34Z</time>
      </trkpt>
      <trkpt lat="48.75006" lon="1.89376">
        <ele>121.4287109375</ele>
        <time>2017-02-25T08:47:43Z</time>
      </trkpt>
      <trkpt lat="48.75013" lon="1.89395">
        <ele>121.24969482422</ele>
        <time>2017-02-25T08:47:51Z</time>
      </trkpt>
      <trkpt lat="48.75015" lon="1.89417">
        <ele>122.19006347656</ele>
        <time>2017-02-25T08:47:58Z</time>
      </trkpt>
      <trkpt lat="48.75008" lon="1.89438">
        <ele>120.35028076172</ele>
        <time>2017-02-25T08:48:07Z</time>
      </trkpt>
      <trkpt lat="48.75005" lon="1.89458">
        <ele>117.61102294922</ele>
        <time>2017-02-25T08:48:15Z</time>
      </trkpt>
      <trkpt lat="48.75" lon="1.89478">
        <ele>120.96563720703</ele>
        <time>2017-02-25T08:48:23Z</time>
      </trkpt>
      <trkpt lat="48.74997" lon="1.89502">
        <ele>119.68884277344</ele>
        <time>2017-02-25T08:48:34Z</time>
      </trkpt>
      <trkpt lat="48.74998" lon="1.89523">
        <ele>117.60052490234</ele>
        <time>2017-02-25T08:48:46Z</time>
      </trkpt>
      <trkpt lat="48.75001" lon="1.89546">
        <ele>118.27453613281</ele>
        <time>2017-02-25T08:48:52Z</time>
      </trkpt>
      <trkpt lat="48.75007" lon="1.89566">
        <ele>120.57037353516</ele>
        <time>2017-02-25T08:48:57Z</time>
      </trkpt>
      <trkpt lat="48.75011" lon="1.89587">
        <ele>120.08288574219</ele>
        <time>2017-02-25T08:49:16Z</time>
      </trkpt>
      <trkpt lat="48.75011" lon="1.89608">
        <ele>124.94378662109</ele>
        <time>2017-02-25T08:49:25Z</time>
      </trkpt>
      <trkpt lat="48.75024" lon="1.89615">
        <ele>122.76507568359</ele>
        <time>2017-02-25T08:49:31Z</time>
      </trkpt>
      <trkpt lat="48.75038" lon="1.8961">
        <ele>125.75762939453</ele>
        <time>2017-02-25T08:49:40Z</time>
      </trkpt>
      <trkpt lat="48.7505" lon="1.89602">
        <ele>125.50830078125</ele>
        <time>2017-02-25T08:49:47Z</time>
      </trkpt>
      <trkpt lat="48.75064" lon="1.8959">
        <ele>124.037109375</ele>
        <time>2017-02-25T08:49:55Z</time>
      </trkpt>
      <trkpt lat="48.75075" lon="1.89577">
        <ele>124.61901855469</ele>
        <time>2017-02-25T08:50:01Z</time>
      </trkpt>
      <trkpt lat="48.75087" lon="1.89565">
        <ele>119.63806152344</ele>
        <time>2017-02-25T08:50:10Z</time>
      </trkpt>
      <trkpt lat="48.75101" lon="1.8956">
        <ele>119.15502929688</ele>
        <time>2017-02-25T08:50:19Z</time>
      </trkpt>
      <trkpt lat="48.75112" lon="1.89548">
        <ele>120.41656494141</ele>
        <time>2017-02-25T08:50:28Z</time>
      </trkpt>
      <trkpt lat="48.75128" lon="1.89542">
        <ele>122.69177246094</ele>
        <time>2017-02-25T08:50:37Z</time>
      </trkpt>
      <trkpt lat="48.75143" lon="1.89536">
        <ele>122.17291259766</ele>
        <time>2017-02-25T08:50:42Z</time>
      </trkpt>
      <trkpt lat="48.75154" lon="1.89523">
        <ele>120.2998046875</ele>
        <time>2017-02-25T08:50:55Z</time>
      </trkpt>
      <trkpt lat="48.7517" lon="1.89518">
        <ele>117.28552246094</ele>
        <time>2017-02-25T08:51:03Z</time>
      </trkpt>
      <trkpt lat="48.75184" lon="1.8951">
        <ele>120.28210449219</ele>
        <time>2017-02-25T08:51:10Z</time>
      </trkpt>
      <trkpt lat="48.75193" lon="1.89493">
        <ele>122.42248535156</ele>
        <time>2017-02-25T08:51:20Z</time>
      </trkpt>
      <trkpt lat="48.75203" lon="1.89477">
        <ele>118.45007324219</ele>
        <time>2017-02-25T08:51:26Z</time>
      </trkpt>
      <trkpt lat="48.75204" lon="1.89456">
        <ele>118.52465820312</ele>
        <time>2017-02-25T08:51:34Z</time>
      </trkpt>
      <trkpt lat="48.75216" lon="1.89444">
        <ele>114.0537109375</ele>
        <time>2017-02-25T08:51:41Z</time>
      </trkpt>
      <trkpt lat="48.75223" lon="1.89425">
        <ele>116.92626953125</ele>
        <time>2017-02-25T08:51:50Z</time>
      </trkpt>
      <trkpt lat="48.75221" lon="1.89404">
        <ele>120.51580810547</ele>
        <time>2017-02-25T08:52:00Z</time>
      </trkpt>
      <trkpt lat="48.7523" lon="1.89387">
        <ele>119.27600097656</ele>
        <time>2017-02-25T08:52:08Z</time>
      </trkpt>
      <trkpt lat="48.75238" lon="1.89369">
        <ele>114.76898193359</ele>
        <time>2017-02-25T08:52:16Z</time>
      </trkpt>
      <trkpt lat="48.75247" lon="1.89351">
        <ele>118.69616699219</ele>
        <time>2017-02-25T08:52:26Z</time>
      </trkpt>
      <trkpt lat="48.7525" lon="1.89331">
        <ele>118.60375976562</ele>
        <time>2017-02-25T08:52:33Z</time>
      </trkpt>
      <trkpt lat="48.75263" lon="1.89321">
        <ele>117.21850585938</ele>
        <time>2017-02-25T08:53:13Z</time>
      </trkpt>
      <trkpt lat="48.75273" lon="1.89305">
        <ele>117.09906005859</ele>
        <time>2017-02-25T08:53:21Z</time>
      </trkpt>
      <trkpt lat="48.75288" lon="1.89295">
        <ele>122.59387207031</ele>
        <time>2017-02-25T08:53:26Z</time>
      </trkpt>
      <trkpt lat="48.753" lon="1.89282">
        <ele>120.24877929688</ele>
        <time>2017-02-25T08:53:35Z</time>
      </trkpt>
      <trkpt lat="48.75312" lon="1.89274">
        <ele>128.62841796875</ele>
        <time>2017-02-25T08:53:43Z</time>
      </trkpt>
      <trkpt lat="48.75325" lon="1.89266">
        <ele>128.40344238281</ele>
        <time>2017-02-25T08:53:48Z</time>
      </trkpt>
      <trkpt lat="48.7534" lon="1.89262">
        <ele>124.13122558594</ele>
        <time>2017-02-25T08:53:56Z</time>
      </trkpt>
      <trkpt lat="48.75353" lon="1.89253">
        <ele>120.81854248047</ele>
        <time>2017-02-25T08:54:08Z</time>
      </trkpt>
      <trkpt lat="48.75367" lon="1.89252">
        <ele>122.37933349609</ele>
        <time>2017-02-25T08:54:16Z</time>
      </trkpt>
      <trkpt lat="48.75381" lon="1.89257">
        <ele>123.63903808594</ele>
        <time>2017-02-25T08:54:24Z</time>
      </trkpt>
      <trkpt lat="48.75394" lon="1.89265">
        <ele>121.40881347656</ele>
        <time>2017-02-25T08:54:31Z</time>
      </trkpt>
      <trkpt lat="48.75406" lon="1.89275">
        <ele>125.49291992188</ele>
        <time>2017-02-25T08:54:43Z</time>
      </trkpt>
      <trkpt lat="48.75421" lon="1.89278">
        <ele>124.71533203125</ele>
        <time>2017-02-25T08:54:51Z</time>
      </trkpt>
      <trkpt lat="48.75433" lon="1.89266">
        <ele>125.54125976562</ele>
        <time>2017-02-25T08:54:58Z</time>
      </trkpt>
      <trkpt lat="48.75451" lon="1.89261">
        <ele>122.17102050781</ele>
        <time>2017-02-25T08:55:12Z</time>
      </trkpt>
      <trkpt lat="48.75466" lon="1.89259">
        <ele>124.98284912109</ele>
        <time>2017-02-25T08:55:20Z</time>
      </trkpt>
      <trkpt lat="48.7547" lon="1.89237">
        <ele>116.84338378906</ele>
        <time>2017-02-25T08:57:17Z</time>
      </trkpt>
      <trkpt lat="48.75474" lon="1.89214">
        <ele>111.87445068359</ele>
        <time>2017-02-25T08:57:27Z</time>
      </trkpt>
      <trkpt lat="48.75478" lon="1.89193">
        <ele>112.57739257812</ele>
        <time>2017-02-25T08:57:33Z</time>
      </trkpt>
      <trkpt lat="48.75487" lon="1.89176">
        <ele>110.37805175781</ele>
        <time>2017-02-25T08:57:41Z</time>
      </trkpt>
      <trkpt lat="48.75495" lon="1.89155">
        <ele>106.78186035156</ele>
        <time>2017-02-25T08:57:49Z</time>
      </trkpt>
      <trkpt lat="48.755" lon="1.89134">
        <ele>106.23040771484</ele>
        <time>2017-02-25T08:57:57Z</time>
      </trkpt>
      <trkpt lat="48.75505" lon="1.89113">
        <ele>104.20056152344</ele>
        <time>2017-02-25T08:58:06Z</time>
      </trkpt>
      <trkpt lat="48.75507" lon="1.89091">
        <ele>109.14215087891</ele>
        <time>2017-02-25T08:58:15Z</time>
      </trkpt>
      <trkpt lat="48.75511" lon="1.8907">
        <ele>110.38500976562</ele>
        <time>2017-02-25T08:58:22Z</time>
      </trkpt>
      <trkpt lat="48.75511" lon="1.89047">
        <ele>113.34405517578</ele>
        <time>2017-02-25T08:58:30Z</time>
      </trkpt>
      <trkpt lat="48.75511" lon="1.89026">
        <ele>114.81280517578</ele>
        <time>2017-02-25T08:58:39Z</time>
      </trkpt>
      <trkpt lat="48.75522" lon="1.89013">
        <ele>122.19006347656</ele>
        <time>2017-02-25T08:58:49Z</time>
      </trkpt>
      <trkpt lat="48.75534" lon="1.89001">
        <ele>117.12609863281</ele>
        <time>2017-02-25T08:58:58Z</time>
      </trkpt>
      <trkpt lat="48.75545" lon="1.88988">
        <ele>114.06512451172</ele>
        <time>2017-02-25T08:59:07Z</time>
      </trkpt>
      <trkpt lat="48.75554" lon="1.88973">
        <ele>114.31481933594</ele>
        <time>2017-02-25T08:59:16Z</time>
      </trkpt>
      <trkpt lat="48.75568" lon="1.88969">
        <ele>115.90032958984</ele>
        <time>2017-02-25T08:59:31Z</time>
      </trkpt>
      <trkpt lat="48.7558" lon="1.88958">
        <ele>117.28283691406</ele>
        <time>2017-02-25T08:59:38Z</time>
      </trkpt>
      <trkpt lat="48.75595" lon="1.88952">
        <ele>110.60620117188</ele>
        <time>2017-02-25T08:59:46Z</time>
      </trkpt>
      <trkpt lat="48.7561" lon="1.88955">
        <ele>111.65112304688</ele>
        <time>2017-02-25T08:59:54Z</time>
      </trkpt>
      <trkpt lat="48.75625" lon="1.88957">
        <ele>113.59814453125</ele>
        <time>2017-02-25T08:59:59Z</time>
      </trkpt>
      <trkpt lat="48.75641" lon="1.8894">
        <ele>119.68896484375</ele>
        <time>2017-02-25T09:00:05Z</time>
      </trkpt>
      <trkpt lat="48.75649" lon="1.88923">
        <ele>120.43579101562</ele>
        <time>2017-02-25T09:00:11Z</time>
      </trkpt>
      <trkpt lat="48.75657" lon="1.88905">
        <ele>116.74841308594</ele>
        <time>2017-02-25T09:00:24Z</time>
      </trkpt>
      <trkpt lat="48.75662" lon="1.88886">
        <ele>120.38061523438</ele>
        <time>2017-02-25T09:00:36Z</time>
      </trkpt>
      <trkpt lat="48.75663" lon="1.88865">
        <ele>121.66320800781</ele>
        <time>2017-02-25T09:01:10Z</time>
      </trkpt>
      <trkpt lat="48.75655" lon="1.88847">
        <ele>127.43371582031</ele>
        <time>2017-02-25T09:01:20Z</time>
      </trkpt>
      <trkpt lat="48.7565" lon="1.88827">
        <ele>133.60906982422</ele>
        <time>2017-02-25T09:01:28Z</time>
      </trkpt>
      <trkpt lat="48.75643" lon="1.88809">
        <ele>136.85198974609</ele>
        <time>2017-02-25T09:01:34Z</time>
      </trkpt>
      <trkpt lat="48.75634" lon="1.88792">
        <ele>140.06457519531</ele>
        <time>2017-02-25T09:01:41Z</time>
      </trkpt>
      <trkpt lat="48.75631" lon="1.8877">
        <ele>139.0185546875</ele>
        <time>2017-02-25T09:01:45Z</time>
      </trkpt>
      <trkpt lat="48.75632" lon="1.88749">
        <ele>139.5849609375</ele>
        <time>2017-02-25T09:01:52Z</time>
      </trkpt>
      <trkpt lat="48.7563" lon="1.88728">
        <ele>142.90753173828</ele>
        <time>2017-02-25T09:02:02Z</time>
      </trkpt>
      <trkpt lat="48.75629" lon="1.88708">
        <ele>147.87756347656</ele>
        <time>2017-02-25T09:02:11Z</time>
      </trkpt>
      <trkpt lat="48.75631" lon="1.88687">
        <ele>138.21899414062</ele>
        <time>2017-02-25T09:02:21Z</time>
      </trkpt>
      <trkpt lat="48.75635" lon="1.88667">
        <ele>140.44799804688</ele>
        <time>2017-02-25T09:02:31Z</time>
      </trkpt>
      <trkpt lat="48.75633" lon="1.88646">
        <ele>140.22540283203</ele>
        <time>2017-02-25T09:02:41Z</time>
      </trkpt>
      <trkpt lat="48.75632" lon="1.88625">
        <ele>142.88366699219</ele>
        <time>2017-02-25T09:02:50Z</time>
      </trkpt>
      <trkpt lat="48.75632" lon="1.88603">
        <ele>148.1748046875</ele>
        <time>2017-02-25T09:03:00Z</time>
      </trkpt>
      <trkpt lat="48.75628" lon="1.88583">
        <ele>150.68341064453</ele>
        <time>2017-02-25T09:03:08Z</time>
      </trkpt>
      <trkpt lat="48.7563" lon="1.88563">
        <ele>151.35345458984</ele>
        <time>2017-02-25T09:03:19Z</time>
      </trkpt>
      <trkpt lat="48.75623" lon="1.88545">
        <ele>150.91357421875</ele>
        <time>2017-02-25T09:03:31Z</time>
      </trkpt>
      <trkpt lat="48.7562" lon="1.88524">
        <ele>150.87249755859</ele>
        <time>2017-02-25T09:03:42Z</time>
      </trkpt>
      <trkpt lat="48.75613" lon="1.88505">
        <ele>153.93176269531</ele>
        <time>2017-02-25T09:03:50Z</time>
      </trkpt>
      <trkpt lat="48.75611" lon="1.88485">
        <ele>155.09643554688</ele>
        <time>2017-02-25T09:03:57Z</time>
      </trkpt>
      <trkpt lat="48.7561" lon="1.88463">
        <ele>154.2744140625</ele>
        <time>2017-02-25T09:04:05Z</time>
      </trkpt>
      <trkpt lat="48.75608" lon="1.8844">
        <ele>155.63134765625</ele>
        <time>2017-02-25T09:04:12Z</time>
      </trkpt>
      <trkpt lat="48.75608" lon="1.88418">
        <ele>155.83319091797</ele>
        <time>2017-02-25T09:04:19Z</time>
      </trkpt>
      <trkpt lat="48.75609" lon="1.88397">
        <ele>153.01452636719</ele>
        <time>2017-02-25T09:04:28Z</time>
      </trkpt>
      <trkpt lat="48.75604" lon="1.88376">
        <ele>153.19653320312</ele>
        <time>2017-02-25T09:04:34Z</time>
      </trkpt>
      <trkpt lat="48.75601" lon="1.88356">
        <ele>149.68292236328</ele>
        <time>2017-02-25T09:04:40Z</time>
      </trkpt>
      <trkpt lat="48.75602" lon="1.88335">
        <ele>154.845703125</ele>
        <time>2017-02-25T09:04:51Z</time>
      </trkpt>
      <trkpt lat="48.75611" lon="1.88318">
        <ele>157.56579589844</ele>
        <time>2017-02-25T09:05:27Z</time>
      </trkpt>
      <trkpt lat="48.75623" lon="1.88306">
        <ele>159.60620117188</ele>
        <time>2017-02-25T09:07:20Z</time>
      </trkpt>
      <trkpt lat="48.75635" lon="1.88296">
        <ele>162.71179199219</ele>
        <time>2017-02-25T09:07:26Z</time>
      </trkpt>
      <trkpt lat="48.75647" lon="1.88285">
        <ele>163.32159423828</ele>
        <time>2017-02-25T09:07:32Z</time>
      </trkpt>
      <trkpt lat="48.75661" lon="1.88273">
        <ele>161.92498779297</ele>
        <time>2017-02-25T09:07:39Z</time>
      </trkpt>
      <trkpt lat="48.75674" lon="1.88264">
        <ele>163.68151855469</ele>
        <time>2017-02-25T09:07:47Z</time>
      </trkpt>
      <trkpt lat="48.75678" lon="1.88244">
        <ele>157.58178710938</ele>
        <time>2017-02-25T09:08:01Z</time>
      </trkpt>
      <trkpt lat="48.75677" lon="1.88222">
        <ele>154.55023193359</ele>
        <time>2017-02-25T09:08:09Z</time>
      </trkpt>
      <trkpt lat="48.75679" lon="1.88201">
        <ele>151.00366210938</ele>
        <time>2017-02-25T09:08:20Z</time>
      </trkpt>
      <trkpt lat="48.75677" lon="1.8818">
        <ele>152.82525634766</ele>
        <time>2017-02-25T09:08:29Z</time>
      </trkpt>
      <trkpt lat="48.75667" lon="1.88163">
        <ele>153.20593261719</ele>
        <time>2017-02-25T09:08:37Z</time>
      </trkpt>
      <trkpt lat="48.75655" lon="1.88152">
        <ele>151.74426269531</ele>
        <time>2017-02-25T09:08:47Z</time>
      </trkpt>
      <trkpt lat="48.75642" lon="1.88148">
        <ele>149.95599365234</ele>
        <time>2017-02-25T09:09:01Z</time>
      </trkpt>
      <trkpt lat="48.7563" lon="1.88138">
        <ele>148.24676513672</ele>
        <time>2017-02-25T09:09:11Z</time>
      </trkpt>
      <trkpt lat="48.75621" lon="1.88121">
        <ele>154.59790039062</ele>
        <time>2017-02-25T09:09:21Z</time>
      </trkpt>
      <trkpt lat="48.75614" lon="1.88103">
        <ele>152.31469726562</ele>
        <time>2017-02-25T09:09:29Z</time>
      </trkpt>
      <trkpt lat="48.75605" lon="1.88087">
        <ele>151.41082763672</ele>
        <time>2017-02-25T09:09:39Z</time>
      </trkpt>
      <trkpt lat="48.75601" lon="1.88067">
        <ele>150.09875488281</ele>
        <time>2017-02-25T09:09:48Z</time>
      </trkpt>
      <trkpt lat="48.75594" lon="1.88049">
        <ele>151.55139160156</ele>
        <time>2017-02-25T09:09:57Z</time>
      </trkpt>
      <trkpt lat="48.75588" lon="1.8803">
        <ele>146.97888183594</ele>
        <time>2017-02-25T09:10:05Z</time>
      </trkpt>
      <trkpt lat="48.75594" lon="1.8801">
        <ele>137.88031005859</ele>
        <time>2017-02-25T09:10:19Z</time>
      </trkpt>
      <trkpt lat="48.75604" lon="1.87997">
        <ele>137.21997070312</ele>
        <time>2017-02-25T09:10:29Z</time>
      </trkpt>
      <trkpt lat="48.75614" lon="1.87983">
        <ele>140.66857910156</ele>
        <time>2017-02-25T09:10:37Z</time>
      </trkpt>
      <trkpt lat="48.75628" lon="1.87972">
        <ele>144.29162597656</ele>
        <time>2017-02-25T09:10:45Z</time>
      </trkpt>
      <trkpt lat="48.75639" lon="1.87962">
        <ele>143.08209228516</ele>
        <time>2017-02-25T09:10:52Z</time>
      </trkpt>
      <trkpt lat="48.75653" lon="1.87956">
        <ele>141.35076904297</ele>
        <time>2017-02-25T09:10:59Z</time>
      </trkpt>
      <trkpt lat="48.75665" lon="1.87947">
        <ele>137.58380126953</ele>
        <time>2017-02-25T09:11:07Z</time>
      </trkpt>
      <trkpt lat="48.75678" lon="1.8794">
        <ele>135.60113525391</ele>
        <time>2017-02-25T09:11:16Z</time>
      </trkpt>
      <trkpt lat="48.75687" lon="1.87923">
        <ele>131.94879150391</ele>
        <time>2017-02-25T09:11:26Z</time>
      </trkpt>
      <trkpt lat="48.75699" lon="1.87908">
        <ele>131.05621337891</ele>
        <time>2017-02-25T09:11:36Z</time>
      </trkpt>
      <trkpt lat="48.75711" lon="1.87895">
        <ele>127.41021728516</ele>
        <time>2017-02-25T09:11:44Z</time>
      </trkpt>
      <trkpt lat="48.7572" lon="1.8788">
        <ele>129.16137695312</ele>
        <time>2017-02-25T09:11:50Z</time>
      </trkpt>
      <trkpt lat="48.75735" lon="1.87874">
        <ele>131.63586425781</ele>
        <time>2017-02-25T09:11:56Z</time>
      </trkpt>
      <trkpt lat="48.75745" lon="1.8786">
        <ele>125.01025390625</ele>
        <time>2017-02-25T09:12:02Z</time>
      </trkpt>
      <trkpt lat="48.75756" lon="1.87846">
        <ele>124.47064208984</ele>
        <time>2017-02-25T09:12:10Z</time>
      </trkpt>
      <trkpt lat="48.75764" lon="1.87828">
        <ele>124.63421630859</ele>
        <time>2017-02-25T09:12:21Z</time>
      </trkpt>
      <trkpt lat="48.75778" lon="1.8782">
        <ele>125.05072021484</ele>
        <time>2017-02-25T09:12:28Z</time>
      </trkpt>
      <trkpt lat="48.75791" lon="1.87811">
        <ele>126.61877441406</ele>
        <time>2017-02-25T09:12:35Z</time>
      </trkpt>
      <trkpt lat="48.75804" lon="1.87799">
        <ele>129.04888916016</ele>
        <time>2017-02-25T09:12:43Z</time>
      </trkpt>
      <trkpt lat="48.75815" lon="1.87785">
        <ele>130.37847900391</ele>
        <time>2017-02-25T09:12:51Z</time>
      </trkpt>
      <trkpt lat="48.75828" lon="1.87772">
        <ele>126.10229492188</ele>
        <time>2017-02-25T09:13:00Z</time>
      </trkpt>
      <trkpt lat="48.7584" lon="1.87759">
        <ele>124.49145507812</ele>
        <time>2017-02-25T09:13:11Z</time>
      </trkpt>
      <trkpt lat="48.75854" lon="1.87754">
        <ele>125.67565917969</ele>
        <time>2017-02-25T09:13:19Z</time>
      </trkpt>
      <trkpt lat="48.75866" lon="1.87744">
        <ele>124.70391845703</ele>
        <time>2017-02-25T09:13:28Z</time>
      </trkpt>
      <trkpt lat="48.7588" lon="1.87745">
        <ele>124.76580810547</ele>
        <time>2017-02-25T09:13:35Z</time>
      </trkpt>
      <trkpt lat="48.75893" lon="1.87738">
        <ele>125.86956787109</ele>
        <time>2017-02-25T09:13:43Z</time>
      </trkpt>
      <trkpt lat="48.75902" lon="1.8772">
        <ele>127.00689697266</ele>
        <time>2017-02-25T09:13:52Z</time>
      </trkpt>
      <trkpt lat="48.75912" lon="1.87706">
        <ele>127.53430175781</ele>
        <time>2017-02-25T09:14:00Z</time>
      </trkpt>
      <trkpt lat="48.75926" lon="1.87703">
        <ele>128.91906738281</ele>
        <time>2017-02-25T09:14:11Z</time>
      </trkpt>
      <trkpt lat="48.7594" lon="1.87698">
        <ele>129.42596435547</ele>
        <time>2017-02-25T09:14:19Z</time>
      </trkpt>
      <trkpt lat="48.75954" lon="1.87693">
        <ele>121.69665527344</ele>
        <time>2017-02-25T09:14:28Z</time>
      </trkpt>
      <trkpt lat="48.75966" lon="1.87684">
        <ele>120.87243652344</ele>
        <time>2017-02-25T09:14:42Z</time>
      </trkpt>
      <trkpt lat="48.75983" lon="1.87681">
        <ele>118.18133544922</ele>
        <time>2017-02-25T09:15:04Z</time>
      </trkpt>
      <trkpt lat="48.75995" lon="1.87672">
        <ele>118.25952148438</ele>
        <time>2017-02-25T09:15:35Z</time>
      </trkpt>
      <trkpt lat="48.7601" lon="1.87676">
        <ele>122.85595703125</ele>
        <time>2017-02-25T09:15:44Z</time>
      </trkpt>
      <trkpt lat="48.76022" lon="1.87686">
        <ele>124.65673828125</ele>
        <time>2017-02-25T09:15:50Z</time>
      </trkpt>
      <trkpt lat="48.76037" lon="1.87694">
        <ele>127.80944824219</ele>
        <time>2017-02-25T09:15:56Z</time>
      </trkpt>
      <trkpt lat="48.76052" lon="1.87699">
        <ele>124.44104003906</ele>
        <time>2017-02-25T09:16:02Z</time>
      </trkpt>
      <trkpt lat="48.76066" lon="1.87697">
        <ele>129.14416503906</ele>
        <time>2017-02-25T09:16:11Z</time>
      </trkpt>
      <trkpt lat="48.76078" lon="1.87707">
        <ele>133.38690185547</ele>
        <time>2017-02-25T09:16:21Z</time>
      </trkpt>
      <trkpt lat="48.76091" lon="1.87717">
        <ele>137.71612548828</ele>
        <time>2017-02-25T09:16:30Z</time>
      </trkpt>
      <trkpt lat="48.76102" lon="1.87733">
        <ele>138.54693603516</ele>
        <time>2017-02-25T09:16:36Z</time>
      </trkpt>
      <trkpt lat="48.76115" lon="1.87746">
        <ele>132.00610351562</ele>
        <time>2017-02-25T09:16:51Z</time>
      </trkpt>
      <trkpt lat="48.7613" lon="1.87747">
        <ele>141.60717773438</ele>
        <time>2017-02-25T09:17:00Z</time>
      </trkpt>
      <trkpt lat="48.76142" lon="1.87757">
        <ele>144.00122070312</ele>
        <time>2017-02-25T09:17:08Z</time>
      </trkpt>
      <trkpt lat="48.76154" lon="1.87746">
        <ele>144.76287841797</ele>
        <time>2017-02-25T09:17:23Z</time>
      </trkpt>
      <trkpt lat="48.76164" lon="1.87733">
        <ele>140.52740478516</ele>
        <time>2017-02-25T09:17:33Z</time>
      </trkpt>
      <trkpt lat="48.76177" lon="1.87719">
        <ele>147.81628417969</ele>
        <time>2017-02-25T09:17:41Z</time>
      </trkpt>
      <trkpt lat="48.76187" lon="1.87705">
        <ele>148.35705566406</ele>
        <time>2017-02-25T09:18:13Z</time>
      </trkpt>
      <trkpt lat="48.76182" lon="1.87684">
        <ele>158.23553466797</ele>
        <time>2017-02-25T09:19:56Z</time>
      </trkpt>
      <trkpt lat="48.76179" lon="1.87662">
        <ele>162.60656738281</ele>
        <time>2017-02-25T09:20:06Z</time>
      </trkpt>
      <trkpt lat="48.76181" lon="1.8764">
        <ele>167.75524902344</ele>
        <time>2017-02-25T09:20:16Z</time>
      </trkpt>
      <trkpt lat="48.76188" lon="1.87621">
        <ele>162.52154541016</ele>
        <time>2017-02-25T09:20:26Z</time>
      </trkpt>
      <trkpt lat="48.76197" lon="1.87606">
        <ele>168.36169433594</ele>
        <time>2017-02-25T09:20:39Z</time>
      </trkpt>
      <trkpt lat="48.7621" lon="1.87601">
        <ele>169.38323974609</ele>
        <time>2017-02-25T09:21:00Z</time>
      </trkpt>
      <trkpt lat="48.76222" lon="1.8759">
        <ele>163.49694824219</ele>
        <time>2017-02-25T09:21:12Z</time>
      </trkpt>
      <trkpt lat="48.76234" lon="1.8758">
        <ele>161.08532714844</ele>
        <time>2017-02-25T09:21:19Z</time>
      </trkpt>
      <trkpt lat="48.76248" lon="1.87575">
        <ele>155.74072265625</ele>
        <time>2017-02-25T09:21:24Z</time>
      </trkpt>
      <trkpt lat="48.76262" lon="1.87573">
        <ele>154.6650390625</ele>
        <time>2017-02-25T09:21:30Z</time>
      </trkpt>
      <trkpt lat="48.76275" lon="1.87568">
        <ele>154.39904785156</ele>
        <time>2017-02-25T09:21:39Z</time>
      </trkpt>
      <trkpt lat="48.76289" lon="1.87568">
        <ele>159.42028808594</ele>
        <time>2017-02-25T09:21:46Z</time>
      </trkpt>
      <trkpt lat="48.76303" lon="1.87566">
        <ele>165.62963867188</ele>
        <time>2017-02-25T09:21:57Z</time>
      </trkpt>
      <trkpt lat="48.76317" lon="1.8757">
        <ele>166.92724609375</ele>
        <time>2017-02-25T09:22:05Z</time>
      </trkpt>
      <trkpt lat="48.7633" lon="1.87561">
        <ele>166.41149902344</ele>
        <time>2017-02-25T09:22:16Z</time>
      </trkpt>
      <trkpt lat="48.76326" lon="1.8754">
        <ele>165.45361328125</ele>
        <time>2017-02-25T09:22:34Z</time>
      </trkpt>
      <trkpt lat="48.7632" lon="1.8752">
        <ele>164.42077636719</ele>
        <time>2017-02-25T09:22:44Z</time>
      </trkpt>
      <trkpt lat="48.76312" lon="1.87502">
        <ele>163.97430419922</ele>
        <time>2017-02-25T09:22:52Z</time>
      </trkpt>
      <trkpt lat="48.76309" lon="1.87481">
        <ele>163.85107421875</ele>
        <time>2017-02-25T09:23:00Z</time>
      </trkpt>
      <trkpt lat="48.76306" lon="1.87458">
        <ele>161.69976806641</ele>
        <time>2017-02-25T09:23:07Z</time>
      </trkpt>
      <trkpt lat="48.76307" lon="1.87436">
        <ele>165.83062744141</ele>
        <time>2017-02-25T09:23:12Z</time>
      </trkpt>
      <trkpt lat="48.76311" lon="1.87414">
        <ele>169.99291992188</ele>
        <time>2017-02-25T09:23:19Z</time>
      </trkpt>
      <trkpt lat="48.76314" lon="1.87393">
        <ele>175.42663574219</ele>
        <time>2017-02-25T09:23:27Z</time>
      </trkpt>
      <trkpt lat="48.76319" lon="1.87374">
        <ele>180.85382080078</ele>
        <time>2017-02-25T09:23:34Z</time>
      </trkpt>
      <trkpt lat="48.76321" lon="1.8735">
        <ele>179.64221191406</ele>
        <time>2017-02-25T09:23:42Z</time>
      </trkpt>
      <trkpt lat="48.76319" lon="1.87329">
        <ele>176.35681152344</ele>
        <time>2017-02-25T09:23:49Z</time>
      </trkpt>
      <trkpt lat="48.76319" lon="1.87306">
        <ele>176.93365478516</ele>
        <time>2017-02-25T09:23:57Z</time>
      </trkpt>
      <trkpt lat="48.76324" lon="1.87285">
        <ele>172.67517089844</ele>
        <time>2017-02-25T09:24:06Z</time>
      </trkpt>
      <trkpt lat="48.76329" lon="1.87264">
        <ele>170.35339355469</ele>
        <time>2017-02-25T09:24:15Z</time>
      </trkpt>
      <trkpt lat="48.76332" lon="1.87242">
        <ele>168.83117675781</ele>
        <time>2017-02-25T09:24:25Z</time>
      </trkpt>
      <trkpt lat="48.76327" lon="1.87222">
        <ele>162.25970458984</ele>
        <time>2017-02-25T09:24:35Z</time>
      </trkpt>
      <trkpt lat="48.76317" lon="1.87207">
        <ele>161.38555908203</ele>
        <time>2017-02-25T09:24:46Z</time>
      </trkpt>
      <trkpt lat="48.76305" lon="1.87192">
        <ele>155.27465820312</ele>
        <time>2017-02-25T09:24:55Z</time>
      </trkpt>
      <trkpt lat="48.76296" lon="1.87176">
        <ele>158.06274414062</ele>
        <time>2017-02-25T09:25:04Z</time>
      </trkpt>
      <trkpt lat="48.76287" lon="1.87158">
        <ele>158.66375732422</ele>
        <time>2017-02-25T09:25:12Z</time>
      </trkpt>
      <trkpt lat="48.76283" lon="1.87136">
        <ele>157.62591552734</ele>
        <time>2017-02-25T09:25:20Z</time>
      </trkpt>
      <trkpt lat="48.76285" lon="1.87116">
        <ele>157.248046875</ele>
        <time>2017-02-25T09:25:29Z</time>
      </trkpt>
      <trkpt lat="48.76279" lon="1.87096">
        <ele>156.56030273438</ele>
        <time>2017-02-25T09:25:37Z</time>
      </trkpt>
      <trkpt lat="48.76275" lon="1.87074">
        <ele>154.06695556641</ele>
        <time>2017-02-25T09:25:46Z</time>
      </trkpt>
      <trkpt lat="48.7627" lon="1.87052">
        <ele>155.04510498047</ele>
        <time>2017-02-25T09:25:54Z</time>
      </trkpt>
      <trkpt lat="48.76266" lon="1.87031">
        <ele>157.61584472656</ele>
        <time>2017-02-25T09:26:01Z</time>
      </trkpt>
      <trkpt lat="48.7626" lon="1.87012">
        <ele>155.6005859375</ele>
        <time>2017-02-25T09:26:10Z</time>
      </trkpt>
      <trkpt lat="48.76254" lon="1.86992">
        <ele>146.09606933594</ele>
        <time>2017-02-25T09:26:17Z</time>
      </trkpt>
      <trkpt lat="48.76249" lon="1.86973">
        <ele>143.09240722656</ele>
        <time>2017-02-25T09:26:26Z</time>
      </trkpt>
      <trkpt lat="48.76241" lon="1.86954">
        <ele>141.73046875</ele>
        <time>2017-02-25T09:26:35Z</time>
      </trkpt>
      <trkpt lat="48.7624" lon="1.86932">
        <ele>140.71228027344</ele>
        <time>2017-02-25T09:26:45Z</time>
      </trkpt>
      <trkpt lat="48.76247" lon="1.86914">
        <ele>144.72320556641</ele>
        <time>2017-02-25T09:26:54Z</time>
      </trkpt>
      <trkpt lat="48.76243" lon="1.86892">
        <ele>143.12890625</ele>
        <time>2017-02-25T09:27:03Z</time>
      </trkpt>
      <trkpt lat="48.76236" lon="1.86874">
        <ele>140.47277832031</ele>
        <time>2017-02-25T09:27:12Z</time>
      </trkpt>
      <trkpt lat="48.7623" lon="1.86853">
        <ele>144.89617919922</ele>
        <time>2017-02-25T09:27:19Z</time>
      </trkpt>
      <trkpt lat="48.76225" lon="1.86833">
        <ele>145.15124511719</ele>
        <time>2017-02-25T09:27:26Z</time>
      </trkpt>
      <trkpt lat="48.76221" lon="1.86812">
        <ele>143.19232177734</ele>
        <time>2017-02-25T09:27:34Z</time>
      </trkpt>
      <trkpt lat="48.76217" lon="1.86792">
        <ele>145.11682128906</ele>
        <time>2017-02-25T09:27:43Z</time>
      </trkpt>
      <trkpt lat="48.76211" lon="1.86773">
        <ele>132.66687011719</ele>
        <time>2017-02-25T09:27:58Z</time>
      </trkpt>
      <trkpt lat="48.76201" lon="1.86758">
        <ele>124.02795410156</ele>
        <time>2017-02-25T09:28:06Z</time>
      </trkpt>
      <trkpt lat="48.76195" lon="1.86739">
        <ele>116.36779785156</ele>
        <time>2017-02-25T09:28:16Z</time>
      </trkpt>
      <trkpt lat="48.76187" lon="1.8672">
        <ele>120.83489990234</ele>
        <time>2017-02-25T09:28:26Z</time>
      </trkpt>
      <trkpt lat="48.76177" lon="1.86699">
        <ele>117.95098876953</ele>
        <time>2017-02-25T09:28:52Z</time>
      </trkpt>
      <trkpt lat="48.7616" lon="1.867">
        <ele>118.00238037109</ele>
        <time>2017-02-25T09:29:01Z</time>
      </trkpt>
      <trkpt lat="48.76173" lon="1.86696">
        <ele>126.12762451172</ele>
        <time>2017-02-25T09:31:16Z</time>
      </trkpt>
      <trkpt lat="48.76187" lon="1.86689">
        <ele>120.01733398438</ele>
        <time>2017-02-25T09:31:27Z</time>
      </trkpt>
      <trkpt lat="48.76202" lon="1.86692">
        <ele>124.24444580078</ele>
        <time>2017-02-25T09:31:37Z</time>
      </trkpt>
      <trkpt lat="48.76216" lon="1.86698">
        <ele>120.20770263672</ele>
        <time>2017-02-25T09:31:44Z</time>
      </trkpt>
      <trkpt lat="48.76232" lon="1.86699">
        <ele>119.83929443359</ele>
        <time>2017-02-25T09:31:51Z</time>
      </trkpt>
      <trkpt lat="48.76245" lon="1.86708">
        <ele>113.58361816406</ele>
        <time>2017-02-25T09:31:59Z</time>
      </trkpt>
      <trkpt lat="48.76258" lon="1.86715">
        <ele>118.2177734375</ele>
        <time>2017-02-25T09:32:06Z</time>
      </trkpt>
      <trkpt lat="48.7627" lon="1.86728">
        <ele>119.47766113281</ele>
        <time>2017-02-25T09:32:12Z</time>
      </trkpt>
      <trkpt lat="48.7628" lon="1.86742">
        <ele>121.13836669922</ele>
        <time>2017-02-25T09:32:18Z</time>
      </trkpt>
      <trkpt lat="48.76294" lon="1.86749">
        <ele>112.66107177734</ele>
        <time>2017-02-25T09:32:30Z</time>
      </trkpt>
      <trkpt lat="48.76308" lon="1.86752">
        <ele>119.80786132812</ele>
        <time>2017-02-25T09:32:59Z</time>
      </trkpt>
      <trkpt lat="48.76322" lon="1.86752">
        <ele>113.27795410156</ele>
        <time>2017-02-25T09:33:07Z</time>
      </trkpt>
      <trkpt lat="48.76336" lon="1.86751">
        <ele>117.61694335938</ele>
        <time>2017-02-25T09:33:14Z</time>
      </trkpt>
      <trkpt lat="48.76349" lon="1.86755">
        <ele>117.06640625</ele>
        <time>2017-02-25T09:33:23Z</time>
      </trkpt>
      <trkpt lat="48.76368" lon="1.86769">
        <ele>106.30926513672</ele>
        <time>2017-02-25T09:33:44Z</time>
      </trkpt>
      <trkpt lat="48.7638" lon="1.86776">
        <ele>106.67340087891</ele>
        <time>2017-02-25T09:33:50Z</time>
      </trkpt>
      <trkpt lat="48.76395" lon="1.86779">
        <ele>103.72387695312</ele>
        <time>2017-02-25T09:33:57Z</time>
      </trkpt>
      <trkpt lat="48.76409" lon="1.86788">
        <ele>97.329040527344</ele>
        <time>2017-02-25T09:34:02Z</time>
      </trkpt>
      <trkpt lat="48.76425" lon="1.868">
        <ele>100.48620605469</ele>
        <time>2017-02-25T09:34:08Z</time>
      </trkpt>
      <trkpt lat="48.76436" lon="1.86811">
        <ele>105.01409912109</ele>
        <time>2017-02-25T09:34:15Z</time>
      </trkpt>
      <trkpt lat="48.7645" lon="1.86817">
        <ele>107.81958007812</ele>
        <time>2017-02-25T09:34:22Z</time>
      </trkpt>
      <trkpt lat="48.76464" lon="1.86824">
        <ele>110.97924804688</ele>
        <time>2017-02-25T09:34:30Z</time>
      </trkpt>
      <trkpt lat="48.76479" lon="1.86832">
        <ele>117.32800292969</ele>
        <time>2017-02-25T09:34:35Z</time>
      </trkpt>
      <trkpt lat="48.7649" lon="1.86843">
        <ele>120.04382324219</ele>
        <time>2017-02-25T09:34:40Z</time>
      </trkpt>
      <trkpt lat="48.76504" lon="1.86852">
        <ele>123.86004638672</ele>
        <time>2017-02-25T09:34:46Z</time>
      </trkpt>
      <trkpt lat="48.76513" lon="1.86869">
        <ele>129.07305908203</ele>
        <time>2017-02-25T09:34:53Z</time>
      </trkpt>
      <trkpt lat="48.7652" lon="1.86887">
        <ele>136.89013671875</ele>
        <time>2017-02-25T09:35:04Z</time>
      </trkpt>
      <trkpt lat="48.76533" lon="1.86895">
        <ele>139.28955078125</ele>
        <time>2017-02-25T09:35:12Z</time>
      </trkpt>
      <trkpt lat="48.76547" lon="1.86891">
        <ele>144.57153320312</ele>
        <time>2017-02-25T09:35:27Z</time>
      </trkpt>
      <trkpt lat="48.76557" lon="1.86877">
        <ele>145.17016601562</ele>
        <time>2017-02-25T09:35:37Z</time>
      </trkpt>
      <trkpt lat="48.76568" lon="1.8686">
        <ele>148.77801513672</ele>
        <time>2017-02-25T09:35:47Z</time>
      </trkpt>
      <trkpt lat="48.76577" lon="1.86845">
        <ele>144.67065429688</ele>
        <time>2017-02-25T09:35:56Z</time>
      </trkpt>
      <trkpt lat="48.76587" lon="1.86829">
        <ele>147.85778808594</ele>
        <time>2017-02-25T09:36:04Z</time>
      </trkpt>
      <trkpt lat="48.76599" lon="1.86818">
        <ele>149.21801757812</ele>
        <time>2017-02-25T09:36:11Z</time>
      </trkpt>
      <trkpt lat="48.76612" lon="1.86805">
        <ele>160.49963378906</ele>
        <time>2017-02-25T09:36:41Z</time>
      </trkpt>
      <trkpt lat="48.76615" lon="1.86784">
        <ele>155.44738769531</ele>
        <time>2017-02-25T09:36:55Z</time>
      </trkpt>
      <trkpt lat="48.76618" lon="1.86762">
        <ele>157.81365966797</ele>
        <time>2017-02-25T09:37:03Z</time>
      </trkpt>
      <trkpt lat="48.76619" lon="1.8674">
        <ele>157.67449951172</ele>
        <time>2017-02-25T09:37:12Z</time>
      </trkpt>
      <trkpt lat="48.76624" lon="1.8672">
        <ele>163.89801025391</ele>
        <time>2017-02-25T09:37:24Z</time>
      </trkpt>
      <trkpt lat="48.7662" lon="1.867">
        <ele>168.67059326172</ele>
        <time>2017-02-25T09:37:33Z</time>
      </trkpt>
      <trkpt lat="48.76619" lon="1.86678">
        <ele>169.11578369141</ele>
        <time>2017-02-25T09:37:41Z</time>
      </trkpt>
      <trkpt lat="48.76617" lon="1.86657">
        <ele>163.9560546875</ele>
        <time>2017-02-25T09:37:50Z</time>
      </trkpt>
      <trkpt lat="48.7662" lon="1.86637">
        <ele>162.53735351562</ele>
        <time>2017-02-25T09:37:59Z</time>
      </trkpt>
      <trkpt lat="48.76623" lon="1.86615">
        <ele>160.28533935547</ele>
        <time>2017-02-25T09:38:06Z</time>
      </trkpt>
      <trkpt lat="48.76631" lon="1.86597">
        <ele>167.6298828125</ele>
        <time>2017-02-25T09:38:16Z</time>
      </trkpt>
      <trkpt lat="48.76638" lon="1.86578">
        <ele>167.18872070312</ele>
        <time>2017-02-25T09:38:26Z</time>
      </trkpt>
      <trkpt lat="48.76644" lon="1.86559">
        <ele>166.17639160156</ele>
        <time>2017-02-25T09:38:38Z</time>
      </trkpt>
      <trkpt lat="48.76653" lon="1.86542">
        <ele>167.51489257812</ele>
        <time>2017-02-25T09:38:47Z</time>
      </trkpt>
      <trkpt lat="48.76658" lon="1.86521">
        <ele>171.86987304688</ele>
        <time>2017-02-25T09:38:58Z</time>
      </trkpt>
      <trkpt lat="48.76667" lon="1.86505">
        <ele>171.56909179688</ele>
        <time>2017-02-25T09:39:07Z</time>
      </trkpt>
      <trkpt lat="48.76677" lon="1.86491">
        <ele>172.67974853516</ele>
        <time>2017-02-25T09:39:17Z</time>
      </trkpt>
      <trkpt lat="48.76687" lon="1.86475">
        <ele>173.50946044922</ele>
        <time>2017-02-25T09:39:27Z</time>
      </trkpt>
      <trkpt lat="48.767" lon="1.86469">
        <ele>180.04968261719</ele>
        <time>2017-02-25T09:39:39Z</time>
      </trkpt>
      <trkpt lat="48.76714" lon="1.86462">
        <ele>176.37219238281</ele>
        <time>2017-02-25T09:39:45Z</time>
      </trkpt>
      <trkpt lat="48.76724" lon="1.86449">
        <ele>176.28454589844</ele>
        <time>2017-02-25T09:39:52Z</time>
      </trkpt>
      <trkpt lat="48.76734" lon="1.86432">
        <ele>178.96875</ele>
        <time>2017-02-25T09:40:08Z</time>
      </trkpt>
      <trkpt lat="48.76723" lon="1.86431">
        <ele>174.20391845703</ele>
        <time>2017-02-25T09:43:27Z</time>
      </trkpt>
      <trkpt lat="48.76723" lon="1.86431">
        <ele>173.06134033203</ele>
        <time>2017-02-25T09:46:14Z</time>
      </trkpt>
      <trkpt lat="48.76727" lon="1.86412">
        <ele>169.78350830078</ele>
        <time>2017-02-25T09:46:45Z</time>
      </trkpt>
      <trkpt lat="48.76732" lon="1.86392">
        <ele>167.08416748047</ele>
        <time>2017-02-25T09:46:56Z</time>
      </trkpt>
      <trkpt lat="48.76731" lon="1.86369">
        <ele>171.13610839844</ele>
        <time>2017-02-25T09:47:06Z</time>
      </trkpt>
      <trkpt lat="48.76735" lon="1.86349">
        <ele>171.19128417969</ele>
        <time>2017-02-25T09:47:16Z</time>
      </trkpt>
      <trkpt lat="48.76735" lon="1.86329">
        <ele>160.5849609375</ele>
        <time>2017-02-25T09:47:24Z</time>
      </trkpt>
      <trkpt lat="48.7674" lon="1.86309">
        <ele>164.42028808594</ele>
        <time>2017-02-25T09:47:31Z</time>
      </trkpt>
      <trkpt lat="48.76744" lon="1.86286">
        <ele>165.70520019531</ele>
        <time>2017-02-25T09:47:39Z</time>
      </trkpt>
      <trkpt lat="48.76749" lon="1.86265">
        <ele>166.22778320312</ele>
        <time>2017-02-25T09:47:46Z</time>
      </trkpt>
      <trkpt lat="48.76757" lon="1.86247">
        <ele>166.22882080078</ele>
        <time>2017-02-25T09:47:55Z</time>
      </trkpt>
      <trkpt lat="48.76761" lon="1.86227">
        <ele>170.84362792969</ele>
        <time>2017-02-25T09:48:05Z</time>
      </trkpt>
      <trkpt lat="48.76764" lon="1.86202">
        <ele>172.80883789062</ele>
        <time>2017-02-25T09:48:11Z</time>
      </trkpt>
      <trkpt lat="48.76766" lon="1.86179">
        <ele>172.50451660156</ele>
        <time>2017-02-25T09:48:16Z</time>
      </trkpt>
      <trkpt lat="48.76765" lon="1.86156">
        <ele>173.96661376953</ele>
        <time>2017-02-25T09:48:24Z</time>
      </trkpt>
      <trkpt lat="48.76769" lon="1.86135">
        <ele>174.16333007812</ele>
        <time>2017-02-25T09:48:29Z</time>
      </trkpt>
      <trkpt lat="48.76779" lon="1.8612">
        <ele>171.74987792969</ele>
        <time>2017-02-25T09:48:40Z</time>
      </trkpt>
      <trkpt lat="48.76781" lon="1.86097">
        <ele>174.78668212891</ele>
        <time>2017-02-25T09:48:51Z</time>
      </trkpt>
      <trkpt lat="48.76783" lon="1.86076">
        <ele>175.93438720703</ele>
        <time>2017-02-25T09:48:58Z</time>
      </trkpt>
      <trkpt lat="48.76787" lon="1.86055">
        <ele>172.30364990234</ele>
        <time>2017-02-25T09:49:04Z</time>
      </trkpt>
      <trkpt lat="48.76791" lon="1.86032">
        <ele>173.58660888672</ele>
        <time>2017-02-25T09:49:14Z</time>
      </trkpt>
      <trkpt lat="48.76795" lon="1.8601">
        <ele>175.03839111328</ele>
        <time>2017-02-25T09:49:24Z</time>
      </trkpt>
      <trkpt lat="48.76801" lon="1.85992">
        <ele>168.59631347656</ele>
        <time>2017-02-25T09:49:35Z</time>
      </trkpt>
      <trkpt lat="48.76816" lon="1.85991">
        <ele>177.80590820312</ele>
        <time>2017-02-25T09:49:49Z</time>
      </trkpt>
      <trkpt lat="48.76832" lon="1.85987">
        <ele>175.78448486328</ele>
        <time>2017-02-25T09:49:55Z</time>
      </trkpt>
      <trkpt lat="48.76847" lon="1.85987">
        <ele>178.92388916016</ele>
        <time>2017-02-25T09:50:03Z</time>
      </trkpt>
      <trkpt lat="48.76861" lon="1.8599">
        <ele>179.28601074219</ele>
        <time>2017-02-25T09:50:18Z</time>
      </trkpt>
      <trkpt lat="48.76875" lon="1.86004">
        <ele>172.32263183594</ele>
        <time>2017-02-25T09:50:40Z</time>
      </trkpt>
      <trkpt lat="48.76889" lon="1.86011">
        <ele>170.83532714844</ele>
        <time>2017-02-25T09:51:26Z</time>
      </trkpt>
      <trkpt lat="48.76903" lon="1.86009">
        <ele>174.55316162109</ele>
        <time>2017-02-25T09:51:37Z</time>
      </trkpt>
      <trkpt lat="48.76917" lon="1.86011">
        <ele>170.05993652344</ele>
        <time>2017-02-25T09:51:45Z</time>
      </trkpt>
      <trkpt lat="48.7693" lon="1.86024">
        <ele>169.96154785156</ele>
        <time>2017-02-25T09:51:52Z</time>
      </trkpt>
      <trkpt lat="48.7694" lon="1.86037">
        <ele>173.74407958984</ele>
        <time>2017-02-25T09:51:57Z</time>
      </trkpt>
      <trkpt lat="48.76956" lon="1.86038">
        <ele>177.65417480469</ele>
        <time>2017-02-25T09:52:29Z</time>
      </trkpt>
      <trkpt lat="48.76971" lon="1.86044">
        <ele>183.85498046875</ele>
        <time>2017-02-25T09:52:37Z</time>
      </trkpt>
      <trkpt lat="48.76985" lon="1.86048">
        <ele>184.67529296875</ele>
        <time>2017-02-25T09:52:43Z</time>
      </trkpt>
      <trkpt lat="48.76999" lon="1.86049">
        <ele>190.72338867188</ele>
        <time>2017-02-25T09:52:49Z</time>
      </trkpt>
      <trkpt lat="48.77013" lon="1.86049">
        <ele>193.39477539062</ele>
        <time>2017-02-25T09:52:58Z</time>
      </trkpt>
      <trkpt lat="48.77016" lon="1.86027">
        <ele>189.17993164062</ele>
        <time>2017-02-25T09:53:19Z</time>
      </trkpt>
      <trkpt lat="48.77012" lon="1.86006">
        <ele>187.58190917969</ele>
        <time>2017-02-25T09:53:28Z</time>
      </trkpt>
      <trkpt lat="48.77007" lon="1.85985">
        <ele>186.07592773438</ele>
        <time>2017-02-25T09:53:37Z</time>
      </trkpt>
      <trkpt lat="48.77009" lon="1.85964">
        <ele>185.98864746094</ele>
        <time>2017-02-25T09:53:47Z</time>
      </trkpt>
      <trkpt lat="48.77006" lon="1.85943">
        <ele>180.25341796875</ele>
        <time>2017-02-25T09:53:55Z</time>
      </trkpt>
      <trkpt lat="48.77011" lon="1.85922">
        <ele>180.37133789062</ele>
        <time>2017-02-25T09:54:05Z</time>
      </trkpt>
      <trkpt lat="48.77017" lon="1.85894">
        <ele>181.08807373047</ele>
        <time>2017-02-25T09:54:14Z</time>
      </trkpt>
      <trkpt lat="48.77018" lon="1.85872">
        <ele>173.61315917969</ele>
        <time>2017-02-25T09:54:21Z</time>
      </trkpt>
      <trkpt lat="48.7702" lon="1.85852">
        <ele>170.82861328125</ele>
        <time>2017-02-25T09:54:28Z</time>
      </trkpt>
      <trkpt lat="48.7702" lon="1.85831">
        <ele>167.80438232422</ele>
        <time>2017-02-25T09:54:37Z</time>
      </trkpt>
      <trkpt lat="48.77014" lon="1.85812">
        <ele>164.14416503906</ele>
        <time>2017-02-25T09:54:47Z</time>
      </trkpt>
      <trkpt lat="48.77011" lon="1.8579">
        <ele>160.70245361328</ele>
        <time>2017-02-25T09:54:56Z</time>
      </trkpt>
      <trkpt lat="48.76999" lon="1.85777">
        <ele>152.01055908203</ele>
        <time>2017-02-25T09:55:06Z</time>
      </trkpt>
      <trkpt lat="48.76989" lon="1.85761">
        <ele>154.0830078125</ele>
        <time>2017-02-25T09:55:12Z</time>
      </trkpt>
      <trkpt lat="48.76987" lon="1.85741">
        <ele>148.75073242188</ele>
        <time>2017-02-25T09:55:19Z</time>
      </trkpt>
      <trkpt lat="48.76989" lon="1.85717">
        <ele>147.11975097656</ele>
        <time>2017-02-25T09:55:28Z</time>
      </trkpt>
      <trkpt lat="48.76993" lon="1.85697">
        <ele>149.07794189453</ele>
        <time>2017-02-25T09:55:32Z</time>
      </trkpt>
      <trkpt lat="48.76996" lon="1.85675">
        <ele>149.78149414062</ele>
        <time>2017-02-25T09:55:36Z</time>
      </trkpt>
      <trkpt lat="48.77" lon="1.85654">
        <ele>148.38507080078</ele>
        <time>2017-02-25T09:55:51Z</time>
      </trkpt>
      <trkpt lat="48.77011" lon="1.85639">
        <ele>148.50738525391</ele>
        <time>2017-02-25T09:55:59Z</time>
      </trkpt>
      <trkpt lat="48.77009" lon="1.85619">
        <ele>146.88745117188</ele>
        <time>2017-02-25T09:56:07Z</time>
      </trkpt>
      <trkpt lat="48.7701" lon="1.85597">
        <ele>140.78997802734</ele>
        <time>2017-02-25T09:56:15Z</time>
      </trkpt>
      <trkpt lat="48.77014" lon="1.85578">
        <ele>133.3984375</ele>
        <time>2017-02-25T09:56:23Z</time>
      </trkpt>
      <trkpt lat="48.77018" lon="1.85556">
        <ele>133.73217773438</ele>
        <time>2017-02-25T09:56:35Z</time>
      </trkpt>
      <trkpt lat="48.77024" lon="1.85538">
        <ele>129.35101318359</ele>
        <time>2017-02-25T09:56:44Z</time>
      </trkpt>
      <trkpt lat="48.7703" lon="1.85516">
        <ele>129.2021484375</ele>
        <time>2017-02-25T09:56:52Z</time>
      </trkpt>
      <trkpt lat="48.77035" lon="1.85494">
        <ele>126.46557617188</ele>
        <time>2017-02-25T09:57:01Z</time>
      </trkpt>
      <trkpt lat="48.77038" lon="1.85474">
        <ele>129.30224609375</ele>
        <time>2017-02-25T09:57:06Z</time>
      </trkpt>
      <trkpt lat="48.77044" lon="1.85447">
        <ele>128.48718261719</ele>
        <time>2017-02-25T09:57:11Z</time>
      </trkpt>
      <trkpt lat="48.77048" lon="1.85422">
        <ele>129.70904541016</ele>
        <time>2017-02-25T09:57:19Z</time>
      </trkpt>
      <trkpt lat="48.77047" lon="1.854">
        <ele>130.79309082031</ele>
        <time>2017-02-25T09:57:27Z</time>
      </trkpt>
      <trkpt lat="48.77046" lon="1.8538">
        <ele>131.09106445312</ele>
        <time>2017-02-25T09:57:36Z</time>
      </trkpt>
      <trkpt lat="48.77048" lon="1.85354">
        <ele>130.48101806641</ele>
        <time>2017-02-25T09:57:47Z</time>
      </trkpt>
      <trkpt lat="48.77051" lon="1.85332">
        <ele>124.39526367188</ele>
        <time>2017-02-25T09:57:54Z</time>
      </trkpt>
      <trkpt lat="48.77047" lon="1.85311">
        <ele>124.33239746094</ele>
        <time>2017-02-25T09:58:05Z</time>
      </trkpt>
      <trkpt lat="48.77046" lon="1.85291">
        <ele>116.81304931641</ele>
        <time>2017-02-25T09:58:21Z</time>
      </trkpt>
      <trkpt lat="48.77039" lon="1.85272">
        <ele>114.18542480469</ele>
        <time>2017-02-25T09:58:29Z</time>
      </trkpt>
      <trkpt lat="48.77039" lon="1.8525">
        <ele>113.568359375</ele>
        <time>2017-02-25T09:58:35Z</time>
      </trkpt>
      <trkpt lat="48.77027" lon="1.85262">
        <ele>111.90417480469</ele>
        <time>2017-02-25T10:00:09Z</time>
      </trkpt>
      <trkpt lat="48.77013" lon="1.85265">
        <ele>115.36029052734</ele>
        <time>2017-02-25T10:00:22Z</time>
      </trkpt>
      <trkpt lat="48.77022" lon="1.85281">
        <ele>116.12683105469</ele>
        <time>2017-02-25T10:02:59Z</time>
      </trkpt>
      <trkpt lat="48.77034" lon="1.85291">
        <ele>115.126953125</ele>
        <time>2017-02-25T10:03:07Z</time>
      </trkpt>
      <trkpt lat="48.77044" lon="1.85314">
        <ele>120.36437988281</ele>
        <time>2017-02-25T10:04:06Z</time>
      </trkpt>
      <trkpt lat="48.77043" lon="1.85338">
        <ele>123.74853515625</ele>
        <time>2017-02-25T10:04:11Z</time>
      </trkpt>
      <trkpt lat="48.77038" lon="1.85364">
        <ele>125.15710449219</ele>
        <time>2017-02-25T10:04:17Z</time>
      </trkpt>
      <trkpt lat="48.77033" lon="1.85386">
        <ele>130.48449707031</ele>
        <time>2017-02-25T10:04:24Z</time>
      </trkpt>
      <trkpt lat="48.77035" lon="1.85407">
        <ele>127.54736328125</ele>
        <time>2017-02-25T10:04:33Z</time>
      </trkpt>
      <trkpt lat="48.7705" lon="1.85402">
        <ele>128.68835449219</ele>
        <time>2017-02-25T10:04:42Z</time>
      </trkpt>
      <trkpt lat="48.77055" lon="1.85423">
        <ele>129.52136230469</ele>
        <time>2017-02-25T10:04:47Z</time>
      </trkpt>
      <trkpt lat="48.77046" lon="1.85442">
        <ele>130.52514648438</ele>
        <time>2017-02-25T10:04:52Z</time>
      </trkpt>
      <trkpt lat="48.77039" lon="1.85461">
        <ele>135.00653076172</ele>
        <time>2017-02-25T10:04:58Z</time>
      </trkpt>
      <trkpt lat="48.77033" lon="1.85479">
        <ele>135.69165039062</ele>
        <time>2017-02-25T10:05:05Z</time>
      </trkpt>
      <trkpt lat="48.77026" lon="1.85497">
        <ele>138.919921875</ele>
        <time>2017-02-25T10:05:14Z</time>
      </trkpt>
      <trkpt lat="48.77018" lon="1.8552">
        <ele>142.03887939453</ele>
        <time>2017-02-25T10:05:19Z</time>
      </trkpt>
      <trkpt lat="48.77011" lon="1.85538">
        <ele>144.31036376953</ele>
        <time>2017-02-25T10:05:24Z</time>
      </trkpt>
      <trkpt lat="48.7701" lon="1.85561">
        <ele>144.20104980469</ele>
        <time>2017-02-25T10:05:32Z</time>
      </trkpt>
      <trkpt lat="48.77009" lon="1.85582">
        <ele>143.23449707031</ele>
        <time>2017-02-25T10:05:45Z</time>
      </trkpt>
      <trkpt lat="48.77006" lon="1.85603">
        <ele>146.55657958984</ele>
        <time>2017-02-25T10:05:56Z</time>
      </trkpt>
      <trkpt lat="48.76998" lon="1.85626">
        <ele>151.75610351562</ele>
        <time>2017-02-25T10:06:05Z</time>
      </trkpt>
      <trkpt lat="48.76991" lon="1.85646">
        <ele>153.73101806641</ele>
        <time>2017-02-25T10:06:13Z</time>
      </trkpt>
      <trkpt lat="48.76987" lon="1.85665">
        <ele>157.84436035156</ele>
        <time>2017-02-25T10:06:20Z</time>
      </trkpt>
      <trkpt lat="48.76985" lon="1.85687">
        <ele>152.02697753906</ele>
        <time>2017-02-25T10:06:33Z</time>
      </trkpt>
      <trkpt lat="48.76979" lon="1.85705">
        <ele>149.14471435547</ele>
        <time>2017-02-25T10:06:42Z</time>
      </trkpt>
      <trkpt lat="48.7697" lon="1.85722">
        <ele>149.23315429688</ele>
        <time>2017-02-25T10:06:46Z</time>
      </trkpt>
      <trkpt lat="48.76977" lon="1.8574">
        <ele>144.73876953125</ele>
        <time>2017-02-25T10:06:55Z</time>
      </trkpt>
      <trkpt lat="48.76985" lon="1.85758">
        <ele>148.66284179688</ele>
        <time>2017-02-25T10:07:04Z</time>
      </trkpt>
      <trkpt lat="48.76998" lon="1.8577">
        <ele>149.89758300781</ele>
        <time>2017-02-25T10:07:14Z</time>
      </trkpt>
      <trkpt lat="48.77003" lon="1.8579">
        <ele>154.04693603516</ele>
        <time>2017-02-25T10:07:21Z</time>
      </trkpt>
      <trkpt lat="48.77009" lon="1.85811">
        <ele>152.85491943359</ele>
        <time>2017-02-25T10:07:27Z</time>
      </trkpt>
      <trkpt lat="48.77016" lon="1.8583">
        <ele>152.37701416016</ele>
        <time>2017-02-25T10:07:37Z</time>
      </trkpt>
      <trkpt lat="48.77021" lon="1.85853">
        <ele>158.67352294922</ele>
        <time>2017-02-25T10:07:48Z</time>
      </trkpt>
      <trkpt lat="48.77013" lon="1.8587">
        <ele>162.52331542969</ele>
        <time>2017-02-25T10:07:58Z</time>
      </trkpt>
      <trkpt lat="48.77008" lon="1.8589">
        <ele>163.44287109375</ele>
        <time>2017-02-25T10:09:44Z</time>
      </trkpt>
      <trkpt lat="48.77004" lon="1.85911">
        <ele>167.13232421875</ele>
        <time>2017-02-25T10:09:48Z</time>
      </trkpt>
      <trkpt lat="48.76998" lon="1.85931">
        <ele>166.67626953125</ele>
        <time>2017-02-25T10:09:53Z</time>
      </trkpt>
      <trkpt lat="48.76995" lon="1.85952">
        <ele>167.49841308594</ele>
        <time>2017-02-25T10:09:58Z</time>
      </trkpt>
      <trkpt lat="48.76994" lon="1.85975">
        <ele>168.14196777344</ele>
        <time>2017-02-25T10:10:04Z</time>
      </trkpt>
      <trkpt lat="48.76997" lon="1.85995">
        <ele>171.060546875</ele>
        <time>2017-02-25T10:10:11Z</time>
      </trkpt>
      <trkpt lat="48.77002" lon="1.86014">
        <ele>169.25885009766</ele>
        <time>2017-02-25T10:10:19Z</time>
      </trkpt>
      <trkpt lat="48.77005" lon="1.86035">
        <ele>172.70141601562</ele>
        <time>2017-02-25T10:10:26Z</time>
      </trkpt>
      <trkpt lat="48.77009" lon="1.86055">
        <ele>170.82489013672</ele>
        <time>2017-02-25T10:10:37Z</time>
      </trkpt>
      <trkpt lat="48.77021" lon="1.86067">
        <ele>172.84558105469</ele>
        <time>2017-02-25T10:10:52Z</time>
      </trkpt>
      <trkpt lat="48.77028" lon="1.86085">
        <ele>171.57971191406</ele>
        <time>2017-02-25T10:11:00Z</time>
      </trkpt>
      <trkpt lat="48.7703" lon="1.86108">
        <ele>176.95635986328</ele>
        <time>2017-02-25T10:11:09Z</time>
      </trkpt>
      <trkpt lat="48.77034" lon="1.86128">
        <ele>174.98626708984</ele>
        <time>2017-02-25T10:11:17Z</time>
      </trkpt>
      <trkpt lat="48.7703" lon="1.8615">
        <ele>173.82604980469</ele>
        <time>2017-02-25T10:11:21Z</time>
      </trkpt>
      <trkpt lat="48.77025" lon="1.86169">
        <ele>173.6484375</ele>
        <time>2017-02-25T10:11:27Z</time>
      </trkpt>
      <trkpt lat="48.77029" lon="1.8619">
        <ele>172.38415527344</ele>
        <time>2017-02-25T10:11:39Z</time>
      </trkpt>
      <trkpt lat="48.77026" lon="1.86211">
        <ele>169.96875</ele>
        <time>2017-02-25T10:11:50Z</time>
      </trkpt>
      <trkpt lat="48.77021" lon="1.86232">
        <ele>171.59521484375</ele>
        <time>2017-02-25T10:12:00Z</time>
      </trkpt>
      <trkpt lat="48.77016" lon="1.86253">
        <ele>167.59655761719</ele>
        <time>2017-02-25T10:12:08Z</time>
      </trkpt>
      <trkpt lat="48.77011" lon="1.86272">
        <ele>168.54901123047</ele>
        <time>2017-02-25T10:12:14Z</time>
      </trkpt>
      <trkpt lat="48.77011" lon="1.86295">
        <ele>167.380859375</ele>
        <time>2017-02-25T10:12:23Z</time>
      </trkpt>
      <trkpt lat="48.76993" lon="1.86298">
        <ele>167.17895507812</ele>
        <time>2017-02-25T10:12:50Z</time>
      </trkpt>
      <trkpt lat="48.76978" lon="1.86304">
        <ele>168.86389160156</ele>
        <time>2017-02-25T10:12:57Z</time>
      </trkpt>
      <trkpt lat="48.76961" lon="1.86298">
        <ele>168.65478515625</ele>
        <time>2017-02-25T10:13:02Z</time>
      </trkpt>
      <trkpt lat="48.76929" lon="1.86327">
        <ele>167.39868164062</ele>
        <time>2017-02-25T10:13:07Z</time>
      </trkpt>
      <trkpt lat="48.76916" lon="1.86316">
        <ele>173.15252685547</ele>
        <time>2017-02-25T10:13:21Z</time>
      </trkpt>
      <trkpt lat="48.76903" lon="1.86324">
        <ele>173.43444824219</ele>
        <time>2017-02-25T10:13:28Z</time>
      </trkpt>
      <trkpt lat="48.76889" lon="1.86329">
        <ele>176.04858398438</ele>
        <time>2017-02-25T10:13:34Z</time>
      </trkpt>
      <trkpt lat="48.76875" lon="1.86333">
        <ele>179.38055419922</ele>
        <time>2017-02-25T10:13:41Z</time>
      </trkpt>
      <trkpt lat="48.76861" lon="1.86335">
        <ele>182.86242675781</ele>
        <time>2017-02-25T10:13:55Z</time>
      </trkpt>
      <trkpt lat="48.76846" lon="1.8635">
        <ele>176.50665283203</ele>
        <time>2017-02-25T10:14:03Z</time>
      </trkpt>
      <trkpt lat="48.76832" lon="1.86359">
        <ele>178.29553222656</ele>
        <time>2017-02-25T10:14:09Z</time>
      </trkpt>
      <trkpt lat="48.76818" lon="1.86361">
        <ele>174.94793701172</ele>
        <time>2017-02-25T10:14:14Z</time>
      </trkpt>
      <trkpt lat="48.76805" lon="1.86369">
        <ele>175.58776855469</ele>
        <time>2017-02-25T10:14:22Z</time>
      </trkpt>
      <trkpt lat="48.76787" lon="1.86364">
        <ele>177.66571044922</ele>
        <time>2017-02-25T10:14:34Z</time>
      </trkpt>
      <trkpt lat="48.76775" lon="1.8638">
        <ele>179.15203857422</ele>
        <time>2017-02-25T10:14:46Z</time>
      </trkpt>
      <trkpt lat="48.76758" lon="1.86381">
        <ele>180.01647949219</ele>
        <time>2017-02-25T10:14:51Z</time>
      </trkpt>
      <trkpt lat="48.76743" lon="1.86395">
        <ele>181.25323486328</ele>
        <time>2017-02-25T10:14:56Z</time>
      </trkpt>
      <trkpt lat="48.7674" lon="1.86415">
        <ele>176.64770507812</ele>
        <time>2017-02-25T10:15:12Z</time>
      </trkpt>
      <trkpt lat="48.76728" lon="1.8643">
        <ele>179.51867675781</ele>
        <time>2017-02-25T10:15:18Z</time>
      </trkpt>
      <trkpt lat="48.76714" lon="1.86434">
        <ele>181.04931640625</ele>
        <time>2017-02-25T10:15:27Z</time>
      </trkpt>
      <trkpt lat="48.76705" lon="1.86452">
        <ele>176.8544921875</ele>
        <time>2017-02-25T10:15:37Z</time>
      </trkpt>
      <trkpt lat="48.76694" lon="1.86467">
        <ele>175.13226318359</ele>
        <time>2017-02-25T10:15:46Z</time>
      </trkpt>
      <trkpt lat="48.76678" lon="1.86482">
        <ele>176.70086669922</ele>
        <time>2017-02-25T10:15:55Z</time>
      </trkpt>
      <trkpt lat="48.76662" lon="1.86498">
        <ele>178.27130126953</ele>
        <time>2017-02-25T10:16:01Z</time>
      </trkpt>
      <trkpt lat="48.76655" lon="1.86516">
        <ele>179.00140380859</ele>
        <time>2017-02-25T10:16:08Z</time>
      </trkpt>
      <trkpt lat="48.76651" lon="1.86537">
        <ele>178.62469482422</ele>
        <time>2017-02-25T10:16:20Z</time>
      </trkpt>
      <trkpt lat="48.76642" lon="1.86552">
        <ele>179.18609619141</ele>
        <time>2017-02-25T10:16:26Z</time>
      </trkpt>
      <trkpt lat="48.76632" lon="1.86569">
        <ele>177.23199462891</ele>
        <time>2017-02-25T10:16:33Z</time>
      </trkpt>
      <trkpt lat="48.76622" lon="1.86591">
        <ele>174.8876953125</ele>
        <time>2017-02-25T10:16:45Z</time>
      </trkpt>
      <trkpt lat="48.76616" lon="1.86613">
        <ele>175.61645507812</ele>
        <time>2017-02-25T10:16:51Z</time>
      </trkpt>
      <trkpt lat="48.76612" lon="1.86633">
        <ele>177.30932617188</ele>
        <time>2017-02-25T10:16:56Z</time>
      </trkpt>
      <trkpt lat="48.76613" lon="1.86656">
        <ele>177.10888671875</ele>
        <time>2017-02-25T10:17:02Z</time>
      </trkpt>
      <trkpt lat="48.76616" lon="1.86678">
        <ele>173.23413085938</ele>
        <time>2017-02-25T10:17:12Z</time>
      </trkpt>
      <trkpt lat="48.76611" lon="1.867">
        <ele>169.94567871094</ele>
        <time>2017-02-25T10:17:18Z</time>
      </trkpt>
      <trkpt lat="48.76609" lon="1.8672">
        <ele>170.40167236328</ele>
        <time>2017-02-25T10:17:24Z</time>
      </trkpt>
      <trkpt lat="48.76604" lon="1.86741">
        <ele>168.51141357422</ele>
        <time>2017-02-25T10:17:33Z</time>
      </trkpt>
      <trkpt lat="48.76605" lon="1.86764">
        <ele>166.83941650391</ele>
        <time>2017-02-25T10:17:41Z</time>
      </trkpt>
      <trkpt lat="48.76607" lon="1.86786">
        <ele>160.78344726562</ele>
        <time>2017-02-25T10:17:53Z</time>
      </trkpt>
      <trkpt lat="48.76603" lon="1.86806">
        <ele>158.56372070312</ele>
        <time>2017-02-25T10:18:02Z</time>
      </trkpt>
      <trkpt lat="48.76599" lon="1.86826">
        <ele>157.45489501953</ele>
        <time>2017-02-25T10:18:11Z</time>
      </trkpt>
      <trkpt lat="48.76587" lon="1.86844">
        <ele>158.10870361328</ele>
        <time>2017-02-25T10:18:17Z</time>
      </trkpt>
      <trkpt lat="48.7658" lon="1.86862">
        <ele>155.41247558594</ele>
        <time>2017-02-25T10:18:26Z</time>
      </trkpt>
      <trkpt lat="48.76574" lon="1.86883">
        <ele>148.48315429688</ele>
        <time>2017-02-25T10:18:44Z</time>
      </trkpt>
      <trkpt lat="48.76563" lon="1.86897">
        <ele>149.07586669922</ele>
        <time>2017-02-25T10:18:48Z</time>
      </trkpt>
      <trkpt lat="48.76549" lon="1.869">
        <ele>149.58349609375</ele>
        <time>2017-02-25T10:18:53Z</time>
      </trkpt>
      <trkpt lat="48.76539" lon="1.86886">
        <ele>138.56079101562</ele>
        <time>2017-02-25T10:20:47Z</time>
      </trkpt>
      <trkpt lat="48.76527" lon="1.86871">
        <ele>139.73107910156</ele>
        <time>2017-02-25T10:20:53Z</time>
      </trkpt>
      <trkpt lat="48.76517" lon="1.86856">
        <ele>139.87823486328</ele>
        <time>2017-02-25T10:20:57Z</time>
      </trkpt>
      <trkpt lat="48.76498" lon="1.86835">
        <ele>139.85095214844</ele>
        <time>2017-02-25T10:21:01Z</time>
      </trkpt>
      <trkpt lat="48.7648" lon="1.86816">
        <ele>140.98315429688</ele>
        <time>2017-02-25T10:21:08Z</time>
      </trkpt>
      <trkpt lat="48.76467" lon="1.86805">
        <ele>142.60205078125</ele>
        <time>2017-02-25T10:21:16Z</time>
      </trkpt>
      <trkpt lat="48.76455" lon="1.86789">
        <ele>146.59918212891</ele>
        <time>2017-02-25T10:21:28Z</time>
      </trkpt>
      <trkpt lat="48.76441" lon="1.86783">
        <ele>145.00061035156</ele>
        <time>2017-02-25T10:21:36Z</time>
      </trkpt>
      <trkpt lat="48.76427" lon="1.86778">
        <ele>139.59869384766</ele>
        <time>2017-02-25T10:21:42Z</time>
      </trkpt>
      <trkpt lat="48.76414" lon="1.86772">
        <ele>132.74987792969</ele>
        <time>2017-02-25T10:21:49Z</time>
      </trkpt>
      <trkpt lat="48.76401" lon="1.86764">
        <ele>128.25817871094</ele>
        <time>2017-02-25T10:21:57Z</time>
      </trkpt>
      <trkpt lat="48.76388" lon="1.86757">
        <ele>131.26544189453</ele>
        <time>2017-02-25T10:22:07Z</time>
      </trkpt>
      <trkpt lat="48.76376" lon="1.86744">
        <ele>132.36987304688</ele>
        <time>2017-02-25T10:22:12Z</time>
      </trkpt>
      <trkpt lat="48.76363" lon="1.8675">
        <ele>131.20324707031</ele>
        <time>2017-02-25T10:22:21Z</time>
      </trkpt>
      <trkpt lat="48.76347" lon="1.86751">
        <ele>125.95959472656</ele>
        <time>2017-02-25T10:22:29Z</time>
      </trkpt>
      <trkpt lat="48.76332" lon="1.86754">
        <ele>125.0830078125</ele>
        <time>2017-02-25T10:22:36Z</time>
      </trkpt>
      <trkpt lat="48.76319" lon="1.86749">
        <ele>118.62072753906</ele>
        <time>2017-02-25T10:22:44Z</time>
      </trkpt>
      <trkpt lat="48.76307" lon="1.86737">
        <ele>126.92578125</ele>
        <time>2017-02-25T10:22:54Z</time>
      </trkpt>
      <trkpt lat="48.76294" lon="1.86723">
        <ele>126.62243652344</ele>
        <time>2017-02-25T10:23:02Z</time>
      </trkpt>
      <trkpt lat="48.7628" lon="1.8672">
        <ele>121.29364013672</ele>
        <time>2017-02-25T10:23:11Z</time>
      </trkpt>
      <trkpt lat="48.76268" lon="1.86707">
        <ele>124.49468994141</ele>
        <time>2017-02-25T10:23:25Z</time>
      </trkpt>
      <trkpt lat="48.76252" lon="1.86706">
        <ele>119.52783203125</ele>
        <time>2017-02-25T10:23:33Z</time>
      </trkpt>
      <trkpt lat="48.76237" lon="1.867">
        <ele>115.68658447266</ele>
        <time>2017-02-25T10:23:38Z</time>
      </trkpt>
      <trkpt lat="48.76222" lon="1.86699">
        <ele>114.41131591797</ele>
        <time>2017-02-25T10:23:45Z</time>
      </trkpt>
      <trkpt lat="48.76208" lon="1.86698">
        <ele>110.92535400391</ele>
        <time>2017-02-25T10:23:52Z</time>
      </trkpt>
      <trkpt lat="48.76191" lon="1.86696">
        <ele>110.11596679688</ele>
        <time>2017-02-25T10:23:58Z</time>
      </trkpt>
      <trkpt lat="48.76178" lon="1.86706">
        <ele>113.07281494141</ele>
        <time>2017-02-25T10:24:09Z</time>
      </trkpt>
      <trkpt lat="48.76186" lon="1.86724">
        <ele>115.86370849609</ele>
        <time>2017-02-25T10:24:22Z</time>
      </trkpt>
      <trkpt lat="48.76199" lon="1.86732">
        <ele>117.02062988281</ele>
        <time>2017-02-25T10:24:37Z</time>
      </trkpt>
      <trkpt lat="48.76208" lon="1.86748">
        <ele>119.54846191406</ele>
        <time>2017-02-25T10:24:48Z</time>
      </trkpt>
      <trkpt lat="48.76207" lon="1.86769">
        <ele>122.3779296875</ele>
        <time>2017-02-25T10:24:59Z</time>
      </trkpt>
      <trkpt lat="48.76219" lon="1.86781">
        <ele>126.10095214844</ele>
        <time>2017-02-25T10:25:09Z</time>
      </trkpt>
      <trkpt lat="48.76214" lon="1.86802">
        <ele>132.67578125</ele>
        <time>2017-02-25T10:25:17Z</time>
      </trkpt>
      <trkpt lat="48.76213" lon="1.86828">
        <ele>135.56201171875</ele>
        <time>2017-02-25T10:25:26Z</time>
      </trkpt>
      <trkpt lat="48.76224" lon="1.86843">
        <ele>138.32275390625</ele>
        <time>2017-02-25T10:25:37Z</time>
      </trkpt>
      <trkpt lat="48.76237" lon="1.86854">
        <ele>143.52795410156</ele>
        <time>2017-02-25T10:25:47Z</time>
      </trkpt>
      <trkpt lat="48.76239" lon="1.86879">
        <ele>144.55798339844</ele>
        <time>2017-02-25T10:25:55Z</time>
      </trkpt>
      <trkpt lat="48.76236" lon="1.86899">
        <ele>147.37939453125</ele>
        <time>2017-02-25T10:26:00Z</time>
      </trkpt>
      <trkpt lat="48.76227" lon="1.86916">
        <ele>152.63049316406</ele>
        <time>2017-02-25T10:26:10Z</time>
      </trkpt>
      <trkpt lat="48.76234" lon="1.86937">
        <ele>155.29699707031</ele>
        <time>2017-02-25T10:26:22Z</time>
      </trkpt>
      <trkpt lat="48.76234" lon="1.86958">
        <ele>157.6552734375</ele>
        <time>2017-02-25T10:26:28Z</time>
      </trkpt>
      <trkpt lat="48.76234" lon="1.86979">
        <ele>159.46484375</ele>
        <time>2017-02-25T10:26:37Z</time>
      </trkpt>
      <trkpt lat="48.76245" lon="1.86996">
        <ele>161.52124023438</ele>
        <time>2017-02-25T10:26:43Z</time>
      </trkpt>
      <trkpt lat="48.76252" lon="1.87016">
        <ele>162.74157714844</ele>
        <time>2017-02-25T10:26:53Z</time>
      </trkpt>
      <trkpt lat="48.76258" lon="1.87034">
        <ele>164.14886474609</ele>
        <time>2017-02-25T10:26:59Z</time>
      </trkpt>
      <trkpt lat="48.76266" lon="1.87053">
        <ele>164.53002929688</ele>
        <time>2017-02-25T10:27:08Z</time>
      </trkpt>
      <trkpt lat="48.76276" lon="1.87069">
        <ele>162.79956054688</ele>
        <time>2017-02-25T10:27:17Z</time>
      </trkpt>
      <trkpt lat="48.76278" lon="1.8709">
        <ele>162.38562011719</ele>
        <time>2017-02-25T10:27:25Z</time>
      </trkpt>
      <trkpt lat="48.76277" lon="1.87112">
        <ele>161.80285644531</ele>
        <time>2017-02-25T10:27:33Z</time>
      </trkpt>
      <trkpt lat="48.7628" lon="1.87133">
        <ele>162.08447265625</ele>
        <time>2017-02-25T10:27:42Z</time>
      </trkpt>
      <trkpt lat="48.76282" lon="1.87153">
        <ele>164.89752197266</ele>
        <time>2017-02-25T10:27:54Z</time>
      </trkpt>
      <trkpt lat="48.76295" lon="1.87163">
        <ele>167.68725585938</ele>
        <time>2017-02-25T10:28:03Z</time>
      </trkpt>
      <trkpt lat="48.76304" lon="1.8718">
        <ele>169.80236816406</ele>
        <time>2017-02-25T10:28:12Z</time>
      </trkpt>
      <trkpt lat="48.76309" lon="1.87198">
        <ele>170.26391601562</ele>
        <time>2017-02-25T10:28:20Z</time>
      </trkpt>
      <trkpt lat="48.76322" lon="1.87208">
        <ele>177.59631347656</ele>
        <time>2017-02-25T10:28:34Z</time>
      </trkpt>
      <trkpt lat="48.76322" lon="1.8723">
        <ele>178.7734375</ele>
        <time>2017-02-25T10:28:49Z</time>
      </trkpt>
      <trkpt lat="48.76324" lon="1.8725">
        <ele>171.16882324219</ele>
        <time>2017-02-25T10:29:02Z</time>
      </trkpt>
      <trkpt lat="48.76319" lon="1.87269">
        <ele>170.08801269531</ele>
        <time>2017-02-25T10:29:11Z</time>
      </trkpt>
      <trkpt lat="48.76318" lon="1.8729">
        <ele>163.16052246094</ele>
        <time>2017-02-25T10:29:21Z</time>
      </trkpt>
      <trkpt lat="48.76316" lon="1.8731">
        <ele>162.48919677734</ele>
        <time>2017-02-25T10:29:32Z</time>
      </trkpt>
      <trkpt lat="48.76319" lon="1.8733">
        <ele>167.40686035156</ele>
        <time>2017-02-25T10:29:44Z</time>
      </trkpt>
      <trkpt lat="48.76316" lon="1.87351">
        <ele>167.79968261719</ele>
        <time>2017-02-25T10:29:52Z</time>
      </trkpt>
      <trkpt lat="48.76312" lon="1.87371">
        <ele>165.09460449219</ele>
        <time>2017-02-25T10:30:00Z</time>
      </trkpt>
      <trkpt lat="48.76303" lon="1.8739">
        <ele>169.02496337891</ele>
        <time>2017-02-25T10:30:08Z</time>
      </trkpt>
      <trkpt lat="48.76304" lon="1.87411">
        <ele>170.43322753906</ele>
        <time>2017-02-25T10:30:20Z</time>
      </trkpt>
      <trkpt lat="48.763" lon="1.87431">
        <ele>171.65417480469</ele>
        <time>2017-02-25T10:30:28Z</time>
      </trkpt>
      <trkpt lat="48.76296" lon="1.87451">
        <ele>166.59423828125</ele>
        <time>2017-02-25T10:30:40Z</time>
      </trkpt>
      <trkpt lat="48.763" lon="1.87471">
        <ele>166.63830566406</ele>
        <time>2017-02-25T10:30:50Z</time>
      </trkpt>
      <trkpt lat="48.76303" lon="1.87493">
        <ele>172.68835449219</ele>
        <time>2017-02-25T10:30:58Z</time>
      </trkpt>
      <trkpt lat="48.76314" lon="1.87507">
        <ele>174.56707763672</ele>
        <time>2017-02-25T10:31:09Z</time>
      </trkpt>
      <trkpt lat="48.76325" lon="1.87521">
        <ele>178.28424072266</ele>
        <time>2017-02-25T10:31:17Z</time>
      </trkpt>
      <trkpt lat="48.76333" lon="1.87538">
        <ele>174.986328125</ele>
        <time>2017-02-25T10:31:27Z</time>
      </trkpt>
      <trkpt lat="48.76344" lon="1.87555">
        <ele>175.05364990234</ele>
        <time>2017-02-25T10:31:35Z</time>
      </trkpt>
      <trkpt lat="48.76346" lon="1.87575">
        <ele>175.19909667969</ele>
        <time>2017-02-25T10:31:47Z</time>
      </trkpt>
      <trkpt lat="48.76332" lon="1.87576">
        <ele>172.33447265625</ele>
        <time>2017-02-25T10:33:08Z</time>
      </trkpt>
      <trkpt lat="48.76319" lon="1.87573">
        <ele>165.38385009766</ele>
        <time>2017-02-25T10:33:12Z</time>
      </trkpt>
      <trkpt lat="48.76305" lon="1.87566">
        <ele>163.36279296875</ele>
        <time>2017-02-25T10:33:17Z</time>
      </trkpt>
      <trkpt lat="48.7629" lon="1.87563">
        <ele>162.97283935547</ele>
        <time>2017-02-25T10:33:23Z</time>
      </trkpt>
      <trkpt lat="48.76275" lon="1.87561">
        <ele>159.57446289062</ele>
        <time>2017-02-25T10:33:31Z</time>
      </trkpt>
      <trkpt lat="48.7626" lon="1.87564">
        <ele>156.41015625</ele>
        <time>2017-02-25T10:33:39Z</time>
      </trkpt>
      <trkpt lat="48.76247" lon="1.87571">
        <ele>156.54895019531</ele>
        <time>2017-02-25T10:33:47Z</time>
      </trkpt>
      <trkpt lat="48.76233" lon="1.87575">
        <ele>154.421875</ele>
        <time>2017-02-25T10:33:58Z</time>
      </trkpt>
      <trkpt lat="48.7622" lon="1.87575">
        <ele>156.45727539062</ele>
        <time>2017-02-25T10:34:06Z</time>
      </trkpt>
      <trkpt lat="48.76205" lon="1.87582">
        <ele>160.60162353516</ele>
        <time>2017-02-25T10:34:14Z</time>
      </trkpt>
      <trkpt lat="48.76195" lon="1.87597">
        <ele>156.35278320312</ele>
        <time>2017-02-25T10:34:26Z</time>
      </trkpt>
      <trkpt lat="48.76188" lon="1.87615">
        <ele>160.20599365234</ele>
        <time>2017-02-25T10:34:32Z</time>
      </trkpt>
      <trkpt lat="48.76177" lon="1.87636">
        <ele>160.337890625</ele>
        <time>2017-02-25T10:34:38Z</time>
      </trkpt>
      <trkpt lat="48.76178" lon="1.87658">
        <ele>162.67602539062</ele>
        <time>2017-02-25T10:34:47Z</time>
      </trkpt>
      <trkpt lat="48.76168" lon="1.87677">
        <ele>162.13110351562</ele>
        <time>2017-02-25T10:34:52Z</time>
      </trkpt>
      <trkpt lat="48.76173" lon="1.87698">
        <ele>165.97308349609</ele>
        <time>2017-02-25T10:34:59Z</time>
      </trkpt>
      <trkpt lat="48.76178" lon="1.87719">
        <ele>172.02197265625</ele>
        <time>2017-02-25T10:35:07Z</time>
      </trkpt>
      <trkpt lat="48.76168" lon="1.87736">
        <ele>167.32891845703</ele>
        <time>2017-02-25T10:35:19Z</time>
      </trkpt>
      <trkpt lat="48.76156" lon="1.87747">
        <ele>157.06988525391</ele>
        <time>2017-02-25T10:35:30Z</time>
      </trkpt>
      <trkpt lat="48.76141" lon="1.8775">
        <ele>156.02209472656</ele>
        <time>2017-02-25T10:35:36Z</time>
      </trkpt>
      <trkpt lat="48.76127" lon="1.87745">
        <ele>149.30554199219</ele>
        <time>2017-02-25T10:35:48Z</time>
      </trkpt>
      <trkpt lat="48.76113" lon="1.8774">
        <ele>143.91174316406</ele>
        <time>2017-02-25T10:35:59Z</time>
      </trkpt>
      <trkpt lat="48.76102" lon="1.87725">
        <ele>141.47674560547</ele>
        <time>2017-02-25T10:36:09Z</time>
      </trkpt>
      <trkpt lat="48.76089" lon="1.87716">
        <ele>142.64385986328</ele>
        <time>2017-02-25T10:36:18Z</time>
      </trkpt>
      <trkpt lat="48.76078" lon="1.87703">
        <ele>137.21899414062</ele>
        <time>2017-02-25T10:36:28Z</time>
      </trkpt>
      <trkpt lat="48.76064" lon="1.87695">
        <ele>133.74169921875</ele>
        <time>2017-02-25T10:36:35Z</time>
      </trkpt>
      <trkpt lat="48.76054" lon="1.8768">
        <ele>127.58673095703</ele>
        <time>2017-02-25T10:36:43Z</time>
      </trkpt>
      <trkpt lat="48.7604" lon="1.87673">
        <ele>126.56585693359</ele>
        <time>2017-02-25T10:36:52Z</time>
      </trkpt>
      <trkpt lat="48.76026" lon="1.87673">
        <ele>124.46282958984</ele>
        <time>2017-02-25T10:36:59Z</time>
      </trkpt>
      <trkpt lat="48.7601" lon="1.87674">
        <ele>125.57592773438</ele>
        <time>2017-02-25T10:37:05Z</time>
      </trkpt>
      <trkpt lat="48.75997" lon="1.87673">
        <ele>125.95526123047</ele>
        <time>2017-02-25T10:37:09Z</time>
      </trkpt>
      <trkpt lat="48.75983" lon="1.8767">
        <ele>125.69586181641</ele>
        <time>2017-02-25T10:37:17Z</time>
      </trkpt>
      <trkpt lat="48.7597" lon="1.87683">
        <ele>122.01586914062</ele>
        <time>2017-02-25T10:37:26Z</time>
      </trkpt>
      <trkpt lat="48.75956" lon="1.87688">
        <ele>121.81652832031</ele>
        <time>2017-02-25T10:37:34Z</time>
      </trkpt>
      <trkpt lat="48.75942" lon="1.87693">
        <ele>117.74682617188</ele>
        <time>2017-02-25T10:37:43Z</time>
      </trkpt>
      <trkpt lat="48.75928" lon="1.87693">
        <ele>117.802734375</ele>
        <time>2017-02-25T10:37:50Z</time>
      </trkpt>
      <trkpt lat="48.75913" lon="1.87698">
        <ele>119.52062988281</ele>
        <time>2017-02-25T10:37:59Z</time>
      </trkpt>
      <trkpt lat="48.75902" lon="1.8771">
        <ele>118.44195556641</ele>
        <time>2017-02-25T10:44:43Z</time>
      </trkpt>
      <trkpt lat="48.75886" lon="1.87718">
        <ele>116.83306884766</ele>
        <time>2017-02-25T10:44:48Z</time>
      </trkpt>
      <trkpt lat="48.75874" lon="1.87726">
        <ele>116.81335449219</ele>
        <time>2017-02-25T10:44:53Z</time>
      </trkpt>
      <trkpt lat="48.75861" lon="1.87733">
        <ele>117.83917236328</ele>
        <time>2017-02-25T10:44:58Z</time>
      </trkpt>
      <trkpt lat="48.75849" lon="1.87747">
        <ele>118.29803466797</ele>
        <time>2017-02-25T10:45:05Z</time>
      </trkpt>
      <trkpt lat="48.75837" lon="1.87757">
        <ele>116.53210449219</ele>
        <time>2017-02-25T10:45:13Z</time>
      </trkpt>
      <trkpt lat="48.75825" lon="1.87766">
        <ele>118.86926269531</ele>
        <time>2017-02-25T10:45:19Z</time>
      </trkpt>
      <trkpt lat="48.75816" lon="1.87782">
        <ele>117.47222900391</ele>
        <time>2017-02-25T10:45:26Z</time>
      </trkpt>
      <trkpt lat="48.75803" lon="1.87788">
        <ele>114.92169189453</ele>
        <time>2017-02-25T10:45:36Z</time>
      </trkpt>
      <trkpt lat="48.75792" lon="1.87802">
        <ele>118.82958984375</ele>
        <time>2017-02-25T10:45:45Z</time>
      </trkpt>
      <trkpt lat="48.75779" lon="1.87811">
        <ele>116.14562988281</ele>
        <time>2017-02-25T10:45:55Z</time>
      </trkpt>
      <trkpt lat="48.75774" lon="1.87831">
        <ele>119.64117431641</ele>
        <time>2017-02-25T10:46:06Z</time>
      </trkpt>
      <trkpt lat="48.7576" lon="1.87837">
        <ele>120.38482666016</ele>
        <time>2017-02-25T10:46:14Z</time>
      </trkpt>
      <trkpt lat="48.75747" lon="1.87846">
        <ele>122.11462402344</ele>
        <time>2017-02-25T10:46:20Z</time>
      </trkpt>
      <trkpt lat="48.75731" lon="1.87854">
        <ele>121.18572998047</ele>
        <time>2017-02-25T10:46:29Z</time>
      </trkpt>
      <trkpt lat="48.75726" lon="1.8788">
        <ele>122.04187011719</ele>
        <time>2017-02-25T10:46:44Z</time>
      </trkpt>
      <trkpt lat="48.75714" lon="1.87889">
        <ele>123.31604003906</ele>
        <time>2017-02-25T10:46:52Z</time>
      </trkpt>
      <trkpt lat="48.75701" lon="1.87899">
        <ele>125.33935546875</ele>
        <time>2017-02-25T10:47:02Z</time>
      </trkpt>
      <trkpt lat="48.75692" lon="1.87919">
        <ele>127.88134765625</ele>
        <time>2017-02-25T10:47:09Z</time>
      </trkpt>
      <trkpt lat="48.75679" lon="1.87928">
        <ele>128.49371337891</ele>
        <time>2017-02-25T10:47:16Z</time>
      </trkpt>
      <trkpt lat="48.75666" lon="1.87935">
        <ele>131.47747802734</ele>
        <time>2017-02-25T10:47:25Z</time>
      </trkpt>
      <trkpt lat="48.75653" lon="1.87942">
        <ele>133.18218994141</ele>
        <time>2017-02-25T10:47:32Z</time>
      </trkpt>
      <trkpt lat="48.75641" lon="1.87953">
        <ele>137.58239746094</ele>
        <time>2017-02-25T10:47:41Z</time>
      </trkpt>
      <trkpt lat="48.75629" lon="1.87963">
        <ele>138.27850341797</ele>
        <time>2017-02-25T10:48:13Z</time>
      </trkpt>
      <trkpt lat="48.75612" lon="1.87979">
        <ele>141.75592041016</ele>
        <time>2017-02-25T10:48:18Z</time>
      </trkpt>
      <trkpt lat="48.756" lon="1.87989">
        <ele>142.97387695312</ele>
        <time>2017-02-25T10:48:22Z</time>
      </trkpt>
      <trkpt lat="48.75584" lon="1.87995">
        <ele>145.52807617188</ele>
        <time>2017-02-25T10:48:27Z</time>
      </trkpt>
      <trkpt lat="48.75583" lon="1.88016">
        <ele>147.35034179688</ele>
        <time>2017-02-25T10:48:38Z</time>
      </trkpt>
      <trkpt lat="48.7559" lon="1.88039">
        <ele>149.51440429688</ele>
        <time>2017-02-25T10:48:50Z</time>
      </trkpt>
      <trkpt lat="48.75592" lon="1.88065">
        <ele>153.71276855469</ele>
        <time>2017-02-25T10:48:55Z</time>
      </trkpt>
      <trkpt lat="48.75598" lon="1.88084">
        <ele>160.24798583984</ele>
        <time>2017-02-25T10:49:05Z</time>
      </trkpt>
      <trkpt lat="48.756" lon="1.88105">
        <ele>156.53179931641</ele>
        <time>2017-02-25T10:49:19Z</time>
      </trkpt>
      <trkpt lat="48.75599" lon="1.88126">
        <ele>161.80444335938</ele>
        <time>2017-02-25T10:49:25Z</time>
      </trkpt>
      <trkpt lat="48.75612" lon="1.88137">
        <ele>159.21655273438</ele>
        <time>2017-02-25T10:49:34Z</time>
      </trkpt>
      <trkpt lat="48.75624" lon="1.88151">
        <ele>160.16290283203</ele>
        <time>2017-02-25T10:49:44Z</time>
      </trkpt>
      <trkpt lat="48.75638" lon="1.88143">
        <ele>162.66619873047</ele>
        <time>2017-02-25T10:49:51Z</time>
      </trkpt>
      <trkpt lat="48.75653" lon="1.88145">
        <ele>165.55847167969</ele>
        <time>2017-02-25T10:49:58Z</time>
      </trkpt>
      <trkpt lat="48.75667" lon="1.88152">
        <ele>161.29095458984</ele>
        <time>2017-02-25T10:50:07Z</time>
      </trkpt>
      <trkpt lat="48.75674" lon="1.88172">
        <ele>156.31854248047</ele>
        <time>2017-02-25T10:50:16Z</time>
      </trkpt>
      <trkpt lat="48.75669" lon="1.88193">
        <ele>155.71142578125</ele>
        <time>2017-02-25T10:50:26Z</time>
      </trkpt>
      <trkpt lat="48.75673" lon="1.88213">
        <ele>153.06634521484</ele>
        <time>2017-02-25T10:50:36Z</time>
      </trkpt>
      <trkpt lat="48.75674" lon="1.88235">
        <ele>151.97424316406</ele>
        <time>2017-02-25T10:50:43Z</time>
      </trkpt>
      <trkpt lat="48.75673" lon="1.88257">
        <ele>154.35626220703</ele>
        <time>2017-02-25T10:50:51Z</time>
      </trkpt>
      <trkpt lat="48.7566" lon="1.88269">
        <ele>151.03460693359</ele>
        <time>2017-02-25T10:51:01Z</time>
      </trkpt>
      <trkpt lat="48.75648" lon="1.88279">
        <ele>155.14923095703</ele>
        <time>2017-02-25T10:51:10Z</time>
      </trkpt>
      <trkpt lat="48.75634" lon="1.88287">
        <ele>152.36578369141</ele>
        <time>2017-02-25T10:51:19Z</time>
      </trkpt>
      <trkpt lat="48.75623" lon="1.88298">
        <ele>151.11749267578</ele>
        <time>2017-02-25T10:51:29Z</time>
      </trkpt>
      <trkpt lat="48.7561" lon="1.88311">
        <ele>146.94146728516</ele>
        <time>2017-02-25T10:51:39Z</time>
      </trkpt>
      <trkpt lat="48.75598" lon="1.8832">
        <ele>145.81512451172</ele>
        <time>2017-02-25T10:51:46Z</time>
      </trkpt>
      <trkpt lat="48.75599" lon="1.88343">
        <ele>145.71057128906</ele>
        <time>2017-02-25T10:51:55Z</time>
      </trkpt>
      <trkpt lat="48.75599" lon="1.88367">
        <ele>150.09814453125</ele>
        <time>2017-02-25T10:52:02Z</time>
      </trkpt>
      <trkpt lat="48.75602" lon="1.88388">
        <ele>150.19879150391</ele>
        <time>2017-02-25T10:52:09Z</time>
      </trkpt>
      <trkpt lat="48.75598" lon="1.88408">
        <ele>152.9755859375</ele>
        <time>2017-02-25T10:52:15Z</time>
      </trkpt>
      <trkpt lat="48.75596" lon="1.88429">
        <ele>157.72540283203</ele>
        <time>2017-02-25T10:52:25Z</time>
      </trkpt>
      <trkpt lat="48.75591" lon="1.88457">
        <ele>155.18914794922</ele>
        <time>2017-02-25T10:52:31Z</time>
      </trkpt>
      <trkpt lat="48.75589" lon="1.88478">
        <ele>155.41552734375</ele>
        <time>2017-02-25T10:52:38Z</time>
      </trkpt>
      <trkpt lat="48.75602" lon="1.88471">
        <ele>152.86987304688</ele>
        <time>2017-02-25T10:55:38Z</time>
      </trkpt>
      <trkpt lat="48.75614" lon="1.88486">
        <ele>155.41833496094</ele>
        <time>2017-02-25T10:55:44Z</time>
      </trkpt>
      <trkpt lat="48.75623" lon="1.88504">
        <ele>152.46014404297</ele>
        <time>2017-02-25T10:55:50Z</time>
      </trkpt>
      <trkpt lat="48.75632" lon="1.88521">
        <ele>159.01965332031</ele>
        <time>2017-02-25T10:55:55Z</time>
      </trkpt>
      <trkpt lat="48.75637" lon="1.88543">
        <ele>150.15637207031</ele>
        <time>2017-02-25T10:56:02Z</time>
      </trkpt>
      <trkpt lat="48.75639" lon="1.88565">
        <ele>147.78271484375</ele>
        <time>2017-02-25T10:56:08Z</time>
      </trkpt>
      <trkpt lat="48.75642" lon="1.88586">
        <ele>146.95245361328</ele>
        <time>2017-02-25T10:56:14Z</time>
      </trkpt>
      <trkpt lat="48.75639" lon="1.88607">
        <ele>144.53521728516</ele>
        <time>2017-02-25T10:56:18Z</time>
      </trkpt>
      <trkpt lat="48.75636" lon="1.88628">
        <ele>142.98962402344</ele>
        <time>2017-02-25T10:56:24Z</time>
      </trkpt>
      <trkpt lat="48.75633" lon="1.8865">
        <ele>141.49603271484</ele>
        <time>2017-02-25T10:56:32Z</time>
      </trkpt>
      <trkpt lat="48.75637" lon="1.8867">
        <ele>143.91680908203</ele>
        <time>2017-02-25T10:56:37Z</time>
      </trkpt>
      <trkpt lat="48.75634" lon="1.88691">
        <ele>144.61645507812</ele>
        <time>2017-02-25T10:56:42Z</time>
      </trkpt>
      <trkpt lat="48.75632" lon="1.88714">
        <ele>144.62707519531</ele>
        <time>2017-02-25T10:56:51Z</time>
      </trkpt>
      <trkpt lat="48.75631" lon="1.88735">
        <ele>144.14245605469</ele>
        <time>2017-02-25T10:56:57Z</time>
      </trkpt>
      <trkpt lat="48.75631" lon="1.88756">
        <ele>138.97180175781</ele>
        <time>2017-02-25T10:57:08Z</time>
      </trkpt>
      <trkpt lat="48.75632" lon="1.88779">
        <ele>135.44934082031</ele>
        <time>2017-02-25T10:57:16Z</time>
      </trkpt>
      <trkpt lat="48.7564" lon="1.88799">
        <ele>135.72454833984</ele>
        <time>2017-02-25T10:57:29Z</time>
      </trkpt>
      <trkpt lat="48.75652" lon="1.8881">
        <ele>137.23132324219</ele>
        <time>2017-02-25T10:57:35Z</time>
      </trkpt>
      <trkpt lat="48.75663" lon="1.88825">
        <ele>135.64361572266</ele>
        <time>2017-02-25T10:57:42Z</time>
      </trkpt>
      <trkpt lat="48.75672" lon="1.88844">
        <ele>136.87292480469</ele>
        <time>2017-02-25T10:57:50Z</time>
      </trkpt>
      <trkpt lat="48.75676" lon="1.88865">
        <ele>125.646484375</ele>
        <time>2017-02-25T10:57:57Z</time>
      </trkpt>
      <trkpt lat="48.75674" lon="1.8889">
        <ele>128.42102050781</ele>
        <time>2017-02-25T10:58:02Z</time>
      </trkpt>
      <trkpt lat="48.75671" lon="1.88912">
        <ele>123.81402587891</ele>
        <time>2017-02-25T10:58:07Z</time>
      </trkpt>
      <trkpt lat="48.75659" lon="1.88922">
        <ele>120.35559082031</ele>
        <time>2017-02-25T10:58:13Z</time>
      </trkpt>
      <trkpt lat="48.75645" lon="1.8893">
        <ele>119.5</ele>
        <time>2017-02-25T10:58:21Z</time>
      </trkpt>
      <trkpt lat="48.75632" lon="1.88942">
        <ele>117.05419921875</ele>
        <time>2017-02-25T10:58:29Z</time>
      </trkpt>
      <trkpt lat="48.75619" lon="1.88952">
        <ele>118.55725097656</ele>
        <time>2017-02-25T10:58:35Z</time>
      </trkpt>
      <trkpt lat="48.75606" lon="1.88961">
        <ele>117.86669921875</ele>
        <time>2017-02-25T10:58:46Z</time>
      </trkpt>
      <trkpt lat="48.75592" lon="1.8897">
        <ele>116.30023193359</ele>
        <time>2017-02-25T10:58:54Z</time>
      </trkpt>
      <trkpt lat="48.7558" lon="1.8898">
        <ele>116.47332763672</ele>
        <time>2017-02-25T10:59:02Z</time>
      </trkpt>
      <trkpt lat="48.75566" lon="1.8899">
        <ele>116.87298583984</ele>
        <time>2017-02-25T10:59:09Z</time>
      </trkpt>
      <trkpt lat="48.75555" lon="1.89005">
        <ele>119.44866943359</ele>
        <time>2017-02-25T10:59:15Z</time>
      </trkpt>
      <trkpt lat="48.75541" lon="1.89014">
        <ele>123.18835449219</ele>
        <time>2017-02-25T10:59:21Z</time>
      </trkpt>
      <trkpt lat="48.75527" lon="1.89017">
        <ele>119.80932617188</ele>
        <time>2017-02-25T10:59:29Z</time>
      </trkpt>
      <trkpt lat="48.75514" lon="1.89016">
        <ele>120.0224609375</ele>
        <time>2017-02-25T10:59:40Z</time>
      </trkpt>
      <trkpt lat="48.75499" lon="1.89014">
        <ele>113.33972167969</ele>
        <time>2017-02-25T11:01:49Z</time>
      </trkpt>
      <trkpt lat="48.75483" lon="1.89015">
        <ele>112.99407958984</ele>
        <time>2017-02-25T11:01:54Z</time>
      </trkpt>
      <trkpt lat="48.75459" lon="1.89016">
        <ele>116.74420166016</ele>
        <time>2017-02-25T11:01:59Z</time>
      </trkpt>
      <trkpt lat="48.75443" lon="1.89017">
        <ele>114.49041748047</ele>
        <time>2017-02-25T11:02:05Z</time>
      </trkpt>
      <trkpt lat="48.75429" lon="1.89012">
        <ele>107.90991210938</ele>
        <time>2017-02-25T11:02:15Z</time>
      </trkpt>
      <trkpt lat="48.75414" lon="1.89015">
        <ele>111.66821289062</ele>
        <time>2017-02-25T11:02:24Z</time>
      </trkpt>
      <trkpt lat="48.754" lon="1.8902">
        <ele>114.03112792969</ele>
        <time>2017-02-25T11:02:33Z</time>
      </trkpt>
      <trkpt lat="48.75386" lon="1.89016">
        <ele>111.3974609375</ele>
        <time>2017-02-25T11:02:41Z</time>
      </trkpt>
      <trkpt lat="48.75369" lon="1.89019">
        <ele>110.36682128906</ele>
        <time>2017-02-25T11:02:56Z</time>
      </trkpt>
      <trkpt lat="48.75356" lon="1.89011">
        <ele>109.69549560547</ele>
        <time>2017-02-25T11:03:05Z</time>
      </trkpt>
      <trkpt lat="48.75341" lon="1.89011">
        <ele>105.88720703125</ele>
        <time>2017-02-25T11:03:17Z</time>
      </trkpt>
      <trkpt lat="48.75326" lon="1.89019">
        <ele>107.80584716797</ele>
        <time>2017-02-25T11:03:23Z</time>
      </trkpt>
      <trkpt lat="48.75312" lon="1.89027">
        <ele>109.95031738281</ele>
        <time>2017-02-25T11:03:34Z</time>
      </trkpt>
      <trkpt lat="48.753" lon="1.89038">
        <ele>109.09234619141</ele>
        <time>2017-02-25T11:03:42Z</time>
      </trkpt>
      <trkpt lat="48.75287" lon="1.89044">
        <ele>110.5439453125</ele>
        <time>2017-02-25T11:03:49Z</time>
      </trkpt>
      <trkpt lat="48.75271" lon="1.89051">
        <ele>107.03894042969</ele>
        <time>2017-02-25T11:03:56Z</time>
      </trkpt>
      <trkpt lat="48.75257" lon="1.89063">
        <ele>109.98071289062</ele>
        <time>2017-02-25T11:04:07Z</time>
      </trkpt>
      <trkpt lat="48.75243" lon="1.89072">
        <ele>114.32751464844</ele>
        <time>2017-02-25T11:04:13Z</time>
      </trkpt>
      <trkpt lat="48.75234" lon="1.89089">
        <ele>113.14001464844</ele>
        <time>2017-02-25T11:04:22Z</time>
      </trkpt>
      <trkpt lat="48.75221" lon="1.891">
        <ele>112.24584960938</ele>
        <time>2017-02-25T11:04:29Z</time>
      </trkpt>
      <trkpt lat="48.75211" lon="1.89115">
        <ele>107.85302734375</ele>
        <time>2017-02-25T11:04:39Z</time>
      </trkpt>
      <trkpt lat="48.752" lon="1.8913">
        <ele>107.12683105469</ele>
        <time>2017-02-25T11:04:48Z</time>
      </trkpt>
      <trkpt lat="48.75192" lon="1.89146">
        <ele>104.13391113281</ele>
        <time>2017-02-25T11:04:55Z</time>
      </trkpt>
      <trkpt lat="48.75183" lon="1.89163">
        <ele>105.24847412109</ele>
        <time>2017-02-25T11:05:01Z</time>
      </trkpt>
      <trkpt lat="48.75176" lon="1.89181">
        <ele>108.1806640625</ele>
        <time>2017-02-25T11:05:08Z</time>
      </trkpt>
      <trkpt lat="48.75169" lon="1.892">
        <ele>109.2216796875</ele>
        <time>2017-02-25T11:05:15Z</time>
      </trkpt>
      <trkpt lat="48.7516" lon="1.89219">
        <ele>113.42834472656</ele>
        <time>2017-02-25T11:05:23Z</time>
      </trkpt>
      <trkpt lat="48.75155" lon="1.89239">
        <ele>110.46002197266</ele>
        <time>2017-02-25T11:05:32Z</time>
      </trkpt>
      <trkpt lat="48.75147" lon="1.89257">
        <ele>116.38452148438</ele>
        <time>2017-02-25T11:05:39Z</time>
      </trkpt>
      <trkpt lat="48.75138" lon="1.89274">
        <ele>117.32922363281</ele>
        <time>2017-02-25T11:05:46Z</time>
      </trkpt>
      <trkpt lat="48.75128" lon="1.89291">
        <ele>117.01904296875</ele>
        <time>2017-02-25T11:05:55Z</time>
      </trkpt>
      <trkpt lat="48.75122" lon="1.89311">
        <ele>118.5498046875</ele>
        <time>2017-02-25T11:06:05Z</time>
      </trkpt>
      <trkpt lat="48.75113" lon="1.89328">
        <ele>118.69104003906</ele>
        <time>2017-02-25T11:06:12Z</time>
      </trkpt>
      <trkpt lat="48.75103" lon="1.89343">
        <ele>117.63153076172</ele>
        <time>2017-02-25T11:06:18Z</time>
      </trkpt>
      <trkpt lat="48.75091" lon="1.89357">
        <ele>115.47131347656</ele>
        <time>2017-02-25T11:06:26Z</time>
      </trkpt>
      <trkpt lat="48.75078" lon="1.89359">
        <ele>115.83331298828</ele>
        <time>2017-02-25T11:06:33Z</time>
      </trkpt>
      <trkpt lat="48.75062" lon="1.89361">
        <ele>115.57940673828</ele>
        <time>2017-02-25T11:06:39Z</time>
      </trkpt>
      <trkpt lat="48.75049" lon="1.89368">
        <ele>113.09069824219</ele>
        <time>2017-02-25T11:06:46Z</time>
      </trkpt>
      <trkpt lat="48.75035" lon="1.89371">
        <ele>110.77648925781</ele>
        <time>2017-02-25T11:06:54Z</time>
      </trkpt>
      <trkpt lat="48.75021" lon="1.89374">
        <ele>110.54821777344</ele>
        <time>2017-02-25T11:07:00Z</time>
      </trkpt>
      <trkpt lat="48.75007" lon="1.89378">
        <ele>109.31274414062</ele>
        <time>2017-02-25T11:07:09Z</time>
      </trkpt>
      <trkpt lat="48.74992" lon="1.89376">
        <ele>108.42163085938</ele>
        <time>2017-02-25T11:07:17Z</time>
      </trkpt>
      <trkpt lat="48.74978" lon="1.89374">
        <ele>113.26745605469</ele>
        <time>2017-02-25T11:07:24Z</time>
      </trkpt>
      <trkpt lat="48.74964" lon="1.89373">
        <ele>111.49938964844</ele>
        <time>2017-02-25T11:07:31Z</time>
      </trkpt>
      <trkpt lat="48.7495" lon="1.89374">
        <ele>110.79522705078</ele>
        <time>2017-02-25T11:07:38Z</time>
      </trkpt>
      <trkpt lat="48.74936" lon="1.89376">
        <ele>111.91564941406</ele>
        <time>2017-02-25T11:07:45Z</time>
      </trkpt>
      <trkpt lat="48.74921" lon="1.89379">
        <ele>113.12298583984</ele>
        <time>2017-02-25T11:07:56Z</time>
      </trkpt>
      <trkpt lat="48.74907" lon="1.89375">
        <ele>111.30749511719</ele>
        <time>2017-02-25T11:08:02Z</time>
      </trkpt>
      <trkpt lat="48.74891" lon="1.89368">
        <ele>109.41235351562</ele>
        <time>2017-02-25T11:08:08Z</time>
      </trkpt>
      <trkpt lat="48.74878" lon="1.89359">
        <ele>111.32653808594</ele>
        <time>2017-02-25T11:08:12Z</time>
      </trkpt>
      <trkpt lat="48.74863" lon="1.89351">
        <ele>105.89196777344</ele>
        <time>2017-02-25T11:08:26Z</time>
      </trkpt>
      <trkpt lat="48.74851" lon="1.89338">
        <ele>106.05993652344</ele>
        <time>2017-02-25T11:08:33Z</time>
      </trkpt>
      <trkpt lat="48.74836" lon="1.89337">
        <ele>115.42810058594</ele>
        <time>2017-02-25T11:08:41Z</time>
      </trkpt>
      <trkpt lat="48.74822" lon="1.89331">
        <ele>119.83203125</ele>
        <time>2017-02-25T11:08:52Z</time>
      </trkpt>
      <trkpt lat="48.74814" lon="1.89313">
        <ele>118.55645751953</ele>
        <time>2017-02-25T11:08:58Z</time>
      </trkpt>
      <trkpt lat="48.74802" lon="1.89302">
        <ele>114.30981445312</ele>
        <time>2017-02-25T11:09:03Z</time>
      </trkpt>
      <trkpt lat="48.7479" lon="1.89289">
        <ele>110.4482421875</ele>
        <time>2017-02-25T11:09:09Z</time>
      </trkpt>
      <trkpt lat="48.74776" lon="1.89279">
        <ele>109.79510498047</ele>
        <time>2017-02-25T11:09:15Z</time>
      </trkpt>
      <trkpt lat="48.74759" lon="1.89268">
        <ele>114.14312744141</ele>
        <time>2017-02-25T11:09:23Z</time>
      </trkpt>
      <trkpt lat="48.74747" lon="1.89258">
        <ele>116.470703125</ele>
        <time>2017-02-25T11:09:32Z</time>
      </trkpt>
      <trkpt lat="48.74732" lon="1.89257">
        <ele>116.15069580078</ele>
        <time>2017-02-25T11:09:43Z</time>
      </trkpt>
      <trkpt lat="48.74719" lon="1.89249">
        <ele>115.94360351562</ele>
        <time>2017-02-25T11:09:50Z</time>
      </trkpt>
      <trkpt lat="48.74706" lon="1.89242">
        <ele>111.55834960938</ele>
        <time>2017-02-25T11:09:59Z</time>
      </trkpt>
      <trkpt lat="48.74691" lon="1.89238">
        <ele>115.53771972656</ele>
        <time>2017-02-25T11:10:09Z</time>
      </trkpt>
      <trkpt lat="48.74678" lon="1.89236">
        <ele>116.087890625</ele>
        <time>2017-02-25T11:10:16Z</time>
      </trkpt>
      <trkpt lat="48.74661" lon="1.89239">
        <ele>119.86944580078</ele>
        <time>2017-02-25T11:10:20Z</time>
      </trkpt>
      <trkpt lat="48.74642" lon="1.89228">
        <ele>121.77465820312</ele>
        <time>2017-02-25T11:10:27Z</time>
      </trkpt>
      <trkpt lat="48.74626" lon="1.89232">
        <ele>127.22192382812</ele>
        <time>2017-02-25T11:10:42Z</time>
      </trkpt>
      <trkpt lat="48.74611" lon="1.89237">
        <ele>122.48937988281</ele>
        <time>2017-02-25T11:10:47Z</time>
      </trkpt>
      <trkpt lat="48.74596" lon="1.89239">
        <ele>117.15618896484</ele>
        <time>2017-02-25T11:10:53Z</time>
      </trkpt>
      <trkpt lat="48.74582" lon="1.89239">
        <ele>124.12475585938</ele>
        <time>2017-02-25T11:11:05Z</time>
      </trkpt>
      <trkpt lat="48.74568" lon="1.89237">
        <ele>127.89910888672</ele>
        <time>2017-02-25T11:11:15Z</time>
      </trkpt>
      <trkpt lat="48.74554" lon="1.8924">
        <ele>129.28649902344</ele>
        <time>2017-02-25T11:11:21Z</time>
      </trkpt>
      <trkpt lat="48.74541" lon="1.8925">
        <ele>130.51824951172</ele>
        <time>2017-02-25T11:11:28Z</time>
      </trkpt>
      <trkpt lat="48.74529" lon="1.89262">
        <ele>127.81756591797</ele>
        <time>2017-02-25T11:11:36Z</time>
      </trkpt>
      <trkpt lat="48.7452" lon="1.89279">
        <ele>130.04187011719</ele>
        <time>2017-02-25T11:11:43Z</time>
      </trkpt>
      <trkpt lat="48.74509" lon="1.89295">
        <ele>128.92248535156</ele>
        <time>2017-02-25T11:11:49Z</time>
      </trkpt>
      <trkpt lat="48.74498" lon="1.89307">
        <ele>131.74645996094</ele>
        <time>2017-02-25T11:12:01Z</time>
      </trkpt>
      <trkpt lat="48.74486" lon="1.89319">
        <ele>133.61950683594</ele>
        <time>2017-02-25T11:12:09Z</time>
      </trkpt>
      <trkpt lat="48.74469" lon="1.89332">
        <ele>131.69104003906</ele>
        <time>2017-02-25T11:12:14Z</time>
      </trkpt>
      <trkpt lat="48.74458" lon="1.89347">
        <ele>133.96936035156</ele>
        <time>2017-02-25T11:12:20Z</time>
      </trkpt>
      <trkpt lat="48.74449" lon="1.89362">
        <ele>131.96630859375</ele>
        <time>2017-02-25T11:12:28Z</time>
      </trkpt>
      <trkpt lat="48.74437" lon="1.89375">
        <ele>128.72692871094</ele>
        <time>2017-02-25T11:12:36Z</time>
      </trkpt>
      <trkpt lat="48.74424" lon="1.89381">
        <ele>128.61401367188</ele>
        <time>2017-02-25T11:12:47Z</time>
      </trkpt>
      <trkpt lat="48.7441" lon="1.89381">
        <ele>126.63775634766</ele>
        <time>2017-02-25T11:12:54Z</time>
      </trkpt>
      <trkpt lat="48.74396" lon="1.8938">
        <ele>129.05609130859</ele>
        <time>2017-02-25T11:13:02Z</time>
      </trkpt>
      <trkpt lat="48.74381" lon="1.89376">
        <ele>124.16174316406</ele>
        <time>2017-02-25T11:13:07Z</time>
      </trkpt>
      <trkpt lat="48.74367" lon="1.89377">
        <ele>124.11846923828</ele>
        <time>2017-02-25T11:13:12Z</time>
      </trkpt>
      <trkpt lat="48.74353" lon="1.89369">
        <ele>122.85815429688</ele>
        <time>2017-02-25T11:13:20Z</time>
      </trkpt>
      <trkpt lat="48.74333" lon="1.89367">
        <ele>122.84490966797</ele>
        <time>2017-02-25T11:13:26Z</time>
      </trkpt>
      <trkpt lat="48.74319" lon="1.89331">
        <ele>120.48529052734</ele>
        <time>2017-02-25T11:13:31Z</time>
      </trkpt>
      <trkpt lat="48.74319" lon="1.8931">
        <ele>123.32806396484</ele>
        <time>2017-02-25T11:13:46Z</time>
      </trkpt>
      <trkpt lat="48.74304" lon="1.89301">
        <ele>123.22283935547</ele>
        <time>2017-02-25T11:13:57Z</time>
      </trkpt>
      <trkpt lat="48.7429" lon="1.89294">
        <ele>123.77734375</ele>
        <time>2017-02-25T11:14:07Z</time>
      </trkpt>
      <trkpt lat="48.74274" lon="1.8929">
        <ele>123.25323486328</ele>
        <time>2017-02-25T11:14:14Z</time>
      </trkpt>
      <trkpt lat="48.74261" lon="1.89293">
        <ele>124.99267578125</ele>
        <time>2017-02-25T11:14:24Z</time>
      </trkpt>
      <trkpt lat="48.74244" lon="1.89289">
        <ele>126.76318359375</ele>
        <time>2017-02-25T11:14:30Z</time>
      </trkpt>
      <trkpt lat="48.7423" lon="1.89287">
        <ele>129.10461425781</ele>
        <time>2017-02-25T11:14:36Z</time>
      </trkpt>
      <trkpt lat="48.74216" lon="1.89291">
        <ele>128.09350585938</ele>
        <time>2017-02-25T11:14:45Z</time>
      </trkpt>
      <trkpt lat="48.74202" lon="1.89288">
        <ele>128.03466796875</ele>
        <time>2017-02-25T11:14:52Z</time>
      </trkpt>
      <trkpt lat="48.74188" lon="1.89282">
        <ele>129.01959228516</ele>
        <time>2017-02-25T11:15:03Z</time>
      </trkpt>
      <trkpt lat="48.7417" lon="1.89299">
        <ele>133.06896972656</ele>
        <time>2017-02-25T11:15:10Z</time>
      </trkpt>
      <trkpt lat="48.74159" lon="1.89315">
        <ele>126.83911132812</ele>
        <time>2017-02-25T11:15:23Z</time>
      </trkpt>
      <trkpt lat="48.74145" lon="1.89319">
        <ele>125.74987792969</ele>
        <time>2017-02-25T11:15:31Z</time>
      </trkpt>
      <trkpt lat="48.7413" lon="1.89322">
        <ele>129.97302246094</ele>
        <time>2017-02-25T11:15:46Z</time>
      </trkpt>
      <trkpt lat="48.74115" lon="1.89325">
        <ele>133.31634521484</ele>
        <time>2017-02-25T11:15:57Z</time>
      </trkpt>
      <trkpt lat="48.74101" lon="1.89319">
        <ele>139.15899658203</ele>
        <time>2017-02-25T11:16:07Z</time>
      </trkpt>
      <trkpt lat="48.74089" lon="1.89308">
        <ele>138.57873535156</ele>
        <time>2017-02-25T11:16:20Z</time>
      </trkpt>
      <trkpt lat="48.74074" lon="1.89304">
        <ele>137.12261962891</ele>
        <time>2017-02-25T11:16:26Z</time>
      </trkpt>
      <trkpt lat="48.74062" lon="1.89292">
        <ele>142.01684570312</ele>
        <time>2017-02-25T11:16:35Z</time>
      </trkpt>
      <trkpt lat="48.74046" lon="1.89276">
        <ele>141.47418212891</ele>
        <time>2017-02-25T11:16:40Z</time>
      </trkpt>
      <trkpt lat="48.74035" lon="1.89289">
        <ele>141.78326416016</ele>
        <time>2017-02-25T11:16:47Z</time>
      </trkpt>
      <trkpt lat="48.74022" lon="1.89264">
        <ele>146.52966308594</ele>
        <time>2017-02-25T11:16:57Z</time>
      </trkpt>
      <trkpt lat="48.74016" lon="1.89242">
        <ele>145.30786132812</ele>
        <time>2017-02-25T11:17:04Z</time>
      </trkpt>
      <trkpt lat="48.74001" lon="1.89243">
        <ele>149.35754394531</ele>
        <time>2017-02-25T11:17:22Z</time>
      </trkpt>
      <trkpt lat="48.73988" lon="1.89237">
        <ele>145.70233154297</ele>
        <time>2017-02-25T11:17:28Z</time>
      </trkpt>
      <trkpt lat="48.73976" lon="1.89227">
        <ele>149.17486572266</ele>
        <time>2017-02-25T11:17:37Z</time>
      </trkpt>
      <trkpt lat="48.73964" lon="1.89214">
        <ele>149.11456298828</ele>
        <time>2017-02-25T11:17:44Z</time>
      </trkpt>
      <trkpt lat="48.73953" lon="1.892">
        <ele>150.0947265625</ele>
        <time>2017-02-25T11:17:53Z</time>
      </trkpt>
      <trkpt lat="48.73955" lon="1.8918">
        <ele>151.06188964844</ele>
        <time>2017-02-25T11:18:02Z</time>
      </trkpt>
      <trkpt lat="48.73964" lon="1.89163">
        <ele>149.24035644531</ele>
        <time>2017-02-25T11:18:11Z</time>
      </trkpt>
      <trkpt lat="48.73974" lon="1.89147">
        <ele>151.36486816406</ele>
        <time>2017-02-25T11:18:19Z</time>
      </trkpt>
      <trkpt lat="48.73981" lon="1.89129">
        <ele>151.87713623047</ele>
        <time>2017-02-25T11:18:28Z</time>
      </trkpt>
      <trkpt lat="48.7399" lon="1.89112">
        <ele>159.71606445312</ele>
        <time>2017-02-25T11:18:36Z</time>
      </trkpt>
      <trkpt lat="48.74001" lon="1.89099">
        <ele>156.65783691406</ele>
        <time>2017-02-25T11:18:44Z</time>
      </trkpt>
      <trkpt lat="48.74009" lon="1.89081">
        <ele>158.75732421875</ele>
        <time>2017-02-25T11:18:54Z</time>
      </trkpt>
      <trkpt lat="48.74003" lon="1.89065">
        <ele>159.88800048828</ele>
        <time>2017-02-25T11:19:20Z</time>
      </trkpt>
    </trkseg>
  </trk>
</gpx>